QFA25 WSSS-YMML
Flight info
| Callsign | QFA25 |
|---|---|
| Flight time | 7h 39m |
| Altitude | 33000 |
| Route | ANITO7A ANITO B470 PKP L895 SAPDA A585 DOMOM/N0494F390 A585 AD V255 BENDO Y12 ARBEY |
| Aircraft | A388/J-SADE2E3FGHIJ3J4J5M1RWXY/LB1D1 |
Departure
| Time | 2026-05-06 23:56 |
|---|---|
| Airport | Singapore Changi Airport (WSSS) |
Arrival
| Time | 2026-05-07 07:35 |
|---|---|
| Airport | Melbourne Airport (YMML) |
| Time | Latitude | Longitude | Altitude | Speed | Heading |
|---|---|---|---|---|---|
| 2026-05-06 23:33 | 1.35867 | 103.99168 | 30 ft | 0 kts | 294° |
| 2026-05-06 23:43 | 1.35866 | 103.99170 | 2 ft | 1 kts | 294° |
| 2026-05-06 23:43 | 1.35863 | 103.99175 | 29 ft | 2 kts | 294° |
| 2026-05-06 23:44 | 1.35858 | 103.99187 | 30 ft | 2 kts | 294° |
| 2026-05-06 23:44 | 1.35852 | 103.99200 | 28 ft | 3 kts | 294° |
| 2026-05-06 23:44 | 1.35842 | 103.99214 | 27 ft | 3 kts | 317° |
| 2026-05-06 23:44 | 1.35827 | 103.99221 | 27 ft | 3 kts | 343° |
| 2026-05-06 23:45 | 1.35810 | 103.99221 | 28 ft | 3 kts | 11° |
| 2026-05-06 23:45 | 1.35797 | 103.99215 | 28 ft | 0 kts | 27° |
| 2026-05-06 23:46 | 1.35803 | 103.99218 | 30 ft | 4 kts | 28° |
| 2026-05-06 23:46 | 1.35859 | 103.99252 | 30 ft | 13 kts | 28° |
| 2026-05-06 23:47 | 1.35947 | 103.99295 | 30 ft | 18 kts | 25° |
| 2026-05-06 23:47 | 1.36054 | 103.99343 | 30 ft | 16 kts | 24° |
| 2026-05-06 23:47 | 1.36088 | 103.99390 | 30 ft | 3 kts | 88° |
| 2026-05-06 23:47 | 1.36066 | 103.99415 | 30 ft | 7 kts | 189° |
| 2026-05-06 23:48 | 1.36045 | 103.99405 | 30 ft | 4 kts | 190° |
| 2026-05-06 23:48 | 1.36003 | 103.99425 | 30 ft | 13 kts | 136° |
| 2026-05-06 23:48 | 1.35939 | 103.99527 | 30 ft | 20 kts | 125° |
| 2026-05-06 23:48 | 1.35849 | 103.99558 | 31 ft | 17 kts | 194° |
| 2026-05-06 23:49 | 1.35737 | 103.99511 | 31 ft | 20 kts | 203° |
| 2026-05-06 23:49 | 1.35602 | 103.99454 | 32 ft | 20 kts | 202° |
| 2026-05-06 23:49 | 1.35484 | 103.99406 | 31 ft | 20 kts | 202° |
| 2026-05-06 23:49 | 1.35363 | 103.99355 | 31 ft | 21 kts | 203° |
| 2026-05-06 23:50 | 1.35241 | 103.99302 | 31 ft | 22 kts | 204° |
| 2026-05-06 23:50 | 1.34929 | 103.99168 | 31 ft | 28 kts | 203° |
| 2026-05-06 23:50 | 1.34772 | 103.99102 | 31 ft | 27 kts | 202° |
| 2026-05-06 23:51 | 1.34619 | 103.99038 | 32 ft | 26 kts | 202° |
| 2026-05-06 23:51 | 1.34467 | 103.98974 | 32 ft | 26 kts | 203° |
| 2026-05-06 23:51 | 1.34317 | 103.98911 | 32 ft | 25 kts | 203° |
| 2026-05-06 23:51 | 1.34172 | 103.98849 | 32 ft | 25 kts | 203° |
| 2026-05-06 23:52 | 1.34032 | 103.98790 | 31 ft | 25 kts | 203° |
| 2026-05-06 23:52 | 1.33881 | 103.98726 | 31 ft | 31 kts | 202° |
| 2026-05-06 23:52 | 1.33708 | 103.98654 | 31 ft | 28 kts | 202° |
| 2026-05-06 23:52 | 1.33554 | 103.98588 | 31 ft | 26 kts | 203° |
| 2026-05-06 23:53 | 1.33404 | 103.98524 | 31 ft | 25 kts | 203° |
| 2026-05-06 23:53 | 1.33266 | 103.98465 | 31 ft | 24 kts | 203° |
| 2026-05-06 23:53 | 1.33136 | 103.98409 | 31 ft | 22 kts | 203° |
| 2026-05-06 23:53 | 1.33025 | 103.98367 | 31 ft | 15 kts | 189° |
| 2026-05-06 23:54 | 1.32967 | 103.98371 | 32 ft | 0 kts | 159° |
| 2026-05-06 23:54 | 1.32957 | 103.98376 | 32 ft | 4 kts | 144° |
| 2026-05-06 23:54 | 1.32910 | 103.98463 | 35 ft | 16 kts | 90° |
| 2026-05-06 23:54 | 1.32957 | 103.98528 | 35 ft | 17 kts | 22° |
| 2026-05-06 23:55 | 1.32972 | 103.98534 | 35 ft | 0 kts | 23° |
| 2026-05-06 23:55 | 1.32974 | 103.98535 | 35 ft | 3 kts | 23° |
| 2026-05-06 23:55 | 1.33017 | 103.98553 | 35 ft | 18 kts | 23° |
| 2026-05-06 23:55 | 1.33276 | 103.98663 | 34 ft | 79 kts | 24° |
| 2026-05-06 23:56 | 1.33892 | 103.98923 | 34 ft | 136 kts | 23° |
| 2026-05-06 23:56 | 1.34819 | 103.99312 | 61 ft | 172 kts | 22° |
| 2026-05-06 23:56 | 1.35856 | 103.99729 | 385 ft | 180 kts | 21° |
| 2026-05-06 23:56 | 1.36939 | 104.00113 | 684 ft | 189 kts | 18° |
| 2026-05-06 23:57 | 1.38119 | 104.00446 | 946 ft | 194 kts | 14° |
| 2026-05-06 23:57 | 1.39337 | 104.00725 | 996 ft | 212 kts | 12° |
| 2026-05-06 23:57 | 1.40723 | 104.01093 | 1124 ft | 228 kts | 25° |
| 2026-05-06 23:57 | 1.41984 | 104.01806 | 1635 ft | 227 kts | 32° |
| 2026-05-06 23:58 | 1.43191 | 104.02554 | 2082 ft | 229 kts | 31° |
| 2026-05-06 23:58 | 1.44475 | 104.03266 | 2569 ft | 231 kts | 27° |
| 2026-05-06 23:58 | 1.45812 | 104.03918 | 3016 ft | 233 kts | 25° |
| 2026-05-06 23:58 | 1.47149 | 104.04523 | 3439 ft | 235 kts | 27° |
| 2026-05-06 23:59 | 1.48327 | 104.05462 | 3844 ft | 236 kts | 55° |
| 2026-05-06 23:59 | 1.48786 | 104.06313 | 4145 ft | 235 kts | 73° |
| 2026-05-06 23:59 | 1.48820 | 104.08256 | 4694 ft | 235 kts | 110° |
| 2026-05-06 23:59 | 1.48112 | 104.09577 | 5109 ft | 235 kts | 126° |
| 2026-05-07 00:00 | 1.47233 | 104.10795 | 5513 ft | 239 kts | 126° |
| 2026-05-07 00:00 | 1.46379 | 104.12077 | 5972 ft | 240 kts | 122° |
| 2026-05-07 00:00 | 1.45600 | 104.13433 | 6407 ft | 243 kts | 118° |
| 2026-05-07 00:00 | 1.45122 | 104.14356 | 6682 ft | 243 kts | 117° |
| 2026-05-07 00:01 | 1.44463 | 104.15709 | 7086 ft | 244 kts | 116° |
| 2026-05-07 00:01 | 1.43566 | 104.17628 | 7640 ft | 247 kts | 115° |
| 2026-05-07 00:01 | 1.42894 | 104.19085 | 8049 ft | 248 kts | 115° |
| 2026-05-07 00:01 | 1.42249 | 104.20487 | 8435 ft | 250 kts | 115° |
| 2026-05-07 00:02 | 1.41575 | 104.21951 | 8851 ft | 252 kts | 115° |
| 2026-05-07 00:02 | 1.40892 | 104.23432 | 9288 ft | 252 kts | 115° |
| 2026-05-07 00:02 | 1.40440 | 104.24410 | 9544 ft | 254 kts | 115° |
| 2026-05-07 00:02 | 1.39745 | 104.25911 | 9949 ft | 256 kts | 114° |
| 2026-05-07 00:03 | 1.38794 | 104.27968 | 10436 ft | 259 kts | 114° |
| 2026-05-07 00:03 | 1.38332 | 104.28966 | 10684 ft | 260 kts | 114° |
| 2026-05-07 00:03 | 1.37616 | 104.30512 | 11075 ft | 261 kts | 114° |
| 2026-05-07 00:03 | 1.36680 | 104.32536 | 11588 ft | 263 kts | 114° |
| 2026-05-07 00:04 | 1.36199 | 104.33574 | 11833 ft | 264 kts | 114° |
| 2026-05-07 00:04 | 1.35484 | 104.35118 | 12201 ft | 266 kts | 114° |
| 2026-05-07 00:04 | 1.34748 | 104.36708 | 12596 ft | 268 kts | 114° |
| 2026-05-07 00:04 | 1.33995 | 104.38336 | 12988 ft | 270 kts | 114° |
| 2026-05-07 00:05 | 1.33075 | 104.39851 | 13313 ft | 274 kts | 133° |
| 2026-05-07 00:05 | 1.31606 | 104.40884 | 13655 ft | 280 kts | 156° |
| 2026-05-07 00:05 | 1.29821 | 104.41369 | 13966 ft | 283 kts | 165° |
| 2026-05-07 00:05 | 1.28016 | 104.41795 | 14278 ft | 285 kts | 164° |
| 2026-05-07 00:06 | 1.26238 | 104.42235 | 14589 ft | 287 kts | 163° |
| 2026-05-07 00:06 | 1.24465 | 104.42686 | 14893 ft | 289 kts | 163° |
| 2026-05-07 00:06 | 1.22038 | 104.43312 | 15307 ft | 292 kts | 163° |
| 2026-05-07 00:06 | 1.20823 | 104.43626 | 15510 ft | 293 kts | 163° |
| 2026-05-07 00:07 | 1.18968 | 104.44107 | 15819 ft | 295 kts | 163° |
| 2026-05-07 00:07 | 1.17076 | 104.44597 | 16148 ft | 297 kts | 163° |
| 2026-05-07 00:07 | 1.15189 | 104.45085 | 16447 ft | 299 kts | 163° |
| 2026-05-07 00:07 | 1.13336 | 104.45564 | 16735 ft | 300 kts | 163° |
| 2026-05-07 00:08 | 1.11400 | 104.46065 | 17045 ft | 302 kts | 163° |
| 2026-05-07 00:08 | 1.09501 | 104.46565 | 17336 ft | 304 kts | 162° |
| 2026-05-07 00:08 | 1.07575 | 104.47101 | 17626 ft | 306 kts | 162° |
| 2026-05-07 00:08 | 1.05649 | 104.47644 | 17912 ft | 307 kts | 162° |
| 2026-05-07 00:09 | 1.03687 | 104.48197 | 18192 ft | 309 kts | 162° |
| 2026-05-07 00:09 | 1.01726 | 104.48747 | 18437 ft | 311 kts | 162° |
| 2026-05-07 00:09 | 0.99769 | 104.49296 | 18727 ft | 312 kts | 162° |
| 2026-05-07 00:09 | 0.97805 | 104.49846 | 18988 ft | 313 kts | 162° |
| 2026-05-07 00:10 | 0.95856 | 104.50389 | 19244 ft | 315 kts | 162° |
| 2026-05-07 00:10 | 0.93829 | 104.50953 | 19515 ft | 316 kts | 162° |
| 2026-05-07 00:10 | 0.91858 | 104.51500 | 19772 ft | 317 kts | 162° |
| 2026-05-07 00:10 | 0.89841 | 104.52060 | 20031 ft | 319 kts | 162° |
| 2026-05-07 00:11 | 0.87846 | 104.52613 | 20279 ft | 320 kts | 162° |
| 2026-05-07 00:11 | 0.85812 | 104.53177 | 20538 ft | 322 kts | 162° |
| 2026-05-07 00:11 | 0.83751 | 104.53749 | 20796 ft | 323 kts | 162° |
| 2026-05-07 00:11 | 0.81742 | 104.54307 | 21042 ft | 325 kts | 162° |
| 2026-05-07 00:12 | 0.79682 | 104.54879 | 21299 ft | 326 kts | 162° |
| 2026-05-07 00:12 | 0.77622 | 104.55450 | 21550 ft | 328 kts | 162° |
| 2026-05-07 00:12 | 0.75581 | 104.56017 | 21798 ft | 329 kts | 162° |
| 2026-05-07 00:12 | 0.73505 | 104.56593 | 22049 ft | 330 kts | 162° |
| 2026-05-07 00:13 | 0.71439 | 104.57166 | 22328 ft | 331 kts | 162° |
| 2026-05-07 00:13 | 0.69289 | 104.57763 | 22565 ft | 333 kts | 162° |
| 2026-05-07 00:13 | 0.67203 | 104.58342 | 22809 ft | 334 kts | 162° |
| 2026-05-07 00:13 | 0.65135 | 104.58918 | 23052 ft | 336 kts | 161° |
| 2026-05-07 00:14 | 0.63045 | 104.59529 | 23296 ft | 337 kts | 161° |
| 2026-05-07 00:14 | 0.60935 | 104.60164 | 23518 ft | 339 kts | 161° |
| 2026-05-07 00:14 | 0.58838 | 104.60796 | 23728 ft | 340 kts | 161° |
| 2026-05-07 00:14 | 0.56699 | 104.61438 | 23931 ft | 341 kts | 161° |
| 2026-05-07 00:15 | 0.54563 | 104.62077 | 24134 ft | 343 kts | 161° |
| 2026-05-07 00:15 | 0.52447 | 104.62707 | 24331 ft | 344 kts | 161° |
| 2026-05-07 00:15 | 0.50297 | 104.63347 | 24529 ft | 346 kts | 161° |
| 2026-05-07 00:15 | 0.48202 | 104.63970 | 24720 ft | 347 kts | 161° |
| 2026-05-07 00:16 | 0.45992 | 104.64627 | 24934 ft | 348 kts | 161° |
| 2026-05-07 00:16 | 0.43809 | 104.65273 | 25121 ft | 350 kts | 161° |
| 2026-05-07 00:16 | 0.41661 | 104.65909 | 25317 ft | 351 kts | 161° |
| 2026-05-07 00:16 | 0.39446 | 104.66564 | 25502 ft | 353 kts | 161° |
| 2026-05-07 00:17 | 0.37245 | 104.67215 | 25690 ft | 354 kts | 161° |
| 2026-05-07 00:17 | 0.35007 | 104.67877 | 25888 ft | 356 kts | 161° |
| 2026-05-07 00:17 | 0.32748 | 104.68545 | 26076 ft | 357 kts | 161° |
| 2026-05-07 00:17 | 0.30511 | 104.69207 | 26277 ft | 359 kts | 161° |
| 2026-05-07 00:18 | 0.28211 | 104.69887 | 26461 ft | 360 kts | 161° |
| 2026-05-07 00:18 | 0.25903 | 104.70571 | 26649 ft | 362 kts | 161° |
| 2026-05-07 00:18 | 0.23582 | 104.71258 | 26843 ft | 364 kts | 161° |
| 2026-05-07 00:18 | 0.21294 | 104.71936 | 27035 ft | 365 kts | 161° |
| 2026-05-07 00:19 | 0.18992 | 104.72618 | 27228 ft | 367 kts | 161° |
| 2026-05-07 00:19 | 0.16635 | 104.73316 | 27421 ft | 368 kts | 161° |
| 2026-05-07 00:19 | 0.14370 | 104.73988 | 27600 ft | 370 kts | 161° |
| 2026-05-07 00:19 | 0.12016 | 104.74686 | 27804 ft | 372 kts | 161° |
| 2026-05-07 00:20 | 0.09719 | 104.75369 | 27995 ft | 373 kts | 161° |
| 2026-05-07 00:20 | 0.07368 | 104.76068 | 28191 ft | 375 kts | 161° |
| 2026-05-07 00:20 | 0.04999 | 104.76772 | 28380 ft | 376 kts | 161° |
| 2026-05-07 00:20 | 0.02586 | 104.77490 | 28594 ft | 378 kts | 161° |
| 2026-05-07 00:21 | 0.00183 | 104.78204 | 28790 ft | 380 kts | 161° |
| 2026-05-07 00:21 | -0.02188 | 104.78908 | 28997 ft | 381 kts | 161° |
| 2026-05-07 00:21 | -0.04595 | 104.79624 | 29186 ft | 383 kts | 161° |
| 2026-05-07 00:21 | -0.06986 | 104.80334 | 29405 ft | 385 kts | 161° |
| 2026-05-07 00:22 | -0.09404 | 104.81053 | 29600 ft | 386 kts | 161° |
| 2026-05-07 00:22 | -0.11871 | 104.81786 | 29808 ft | 388 kts | 161° |
| 2026-05-07 00:22 | -0.14311 | 104.82511 | 30006 ft | 390 kts | 161° |
| 2026-05-07 00:22 | -0.16763 | 104.83240 | 30187 ft | 392 kts | 161° |
| 2026-05-07 00:23 | -0.19221 | 104.83969 | 30373 ft | 394 kts | 161° |
| 2026-05-07 00:23 | -0.21722 | 104.84712 | 30558 ft | 396 kts | 161° |
| 2026-05-07 00:23 | -0.24275 | 104.85470 | 30758 ft | 398 kts | 161° |
| 2026-05-07 00:23 | -0.26747 | 104.86290 | 30939 ft | 399 kts | 156° |
| 2026-05-07 00:24 | -0.29091 | 104.87358 | 31133 ft | 400 kts | 150° |
| 2026-05-07 00:24 | -0.31339 | 104.88682 | 31322 ft | 401 kts | 144° |
| 2026-05-07 00:24 | -0.33531 | 104.90194 | 31504 ft | 403 kts | 144° |
| 2026-05-07 00:24 | -0.35682 | 104.91661 | 31699 ft | 405 kts | 144° |
| 2026-05-07 00:25 | -0.37896 | 104.93156 | 31913 ft | 407 kts | 144° |
| 2026-05-07 00:25 | -0.40094 | 104.94638 | 32147 ft | 408 kts | 144° |
| 2026-05-07 00:25 | -0.42322 | 104.96142 | 32341 ft | 410 kts | 144° |
| 2026-05-07 00:25 | -0.44538 | 104.97639 | 32530 ft | 412 kts | 144° |
| 2026-05-07 00:26 | -0.46773 | 104.99151 | 32729 ft | 414 kts | 144° |
| 2026-05-07 00:26 | -0.48991 | 105.00651 | 32902 ft | 417 kts | 144° |
| 2026-05-07 00:26 | -0.53621 | 105.03782 | 32879 ft | 431 kts | 144° |
| 2026-05-07 00:27 | -0.58099 | 105.06812 | 32882 ft | 445 kts | 144° |
| 2026-05-07 00:27 | -0.63063 | 105.10167 | 32880 ft | 456 kts | 144° |
| 2026-05-07 00:28 | -0.68117 | 105.13583 | 32879 ft | 465 kts | 144° |
| 2026-05-07 00:28 | -0.73290 | 105.17083 | 32878 ft | 476 kts | 144° |
| 2026-05-07 00:29 | -0.78605 | 105.20680 | 32886 ft | 490 kts | 145° |
| 2026-05-07 00:30 | -0.89264 | 105.27890 | 32882 ft | 491 kts | 145° |
| 2026-05-07 00:30 | -0.94608 | 105.31506 | 32883 ft | 491 kts | 145° |
| 2026-05-07 00:31 | -1.00012 | 105.35164 | 32900 ft | 491 kts | 145° |
| 2026-05-07 00:31 | -1.05259 | 105.38715 | 32884 ft | 491 kts | 145° |
| 2026-05-07 00:32 | -1.10669 | 105.42377 | 32877 ft | 491 kts | 145° |
| 2026-05-07 00:32 | -1.16069 | 105.46033 | 32874 ft | 491 kts | 145° |
| 2026-05-07 00:33 | -1.21413 | 105.49650 | 32884 ft | 491 kts | 145° |
| 2026-05-07 00:33 | -1.26728 | 105.53248 | 32901 ft | 491 kts | 145° |
| 2026-05-07 00:34 | -1.32120 | 105.56898 | 32879 ft | 491 kts | 145° |
| 2026-05-07 00:34 | -1.37448 | 105.60506 | 32882 ft | 491 kts | 145° |
| 2026-05-07 00:35 | -1.42750 | 105.64096 | 32907 ft | 491 kts | 145° |
| 2026-05-07 00:35 | -1.48070 | 105.67697 | 32887 ft | 489 kts | 145° |
| 2026-05-07 00:36 | -1.53401 | 105.71307 | 32910 ft | 488 kts | 145° |
| 2026-05-07 00:36 | -1.58814 | 105.74973 | 32901 ft | 488 kts | 145° |
| 2026-05-07 00:37 | -1.64139 | 105.78579 | 32888 ft | 488 kts | 145° |
| 2026-05-07 00:37 | -1.69384 | 105.82131 | 32890 ft | 488 kts | 145° |
| 2026-05-07 00:38 | -1.74670 | 105.85712 | 32911 ft | 488 kts | 145° |
| 2026-05-07 00:38 | -1.79988 | 105.89314 | 32896 ft | 488 kts | 145° |
| 2026-05-07 00:39 | -1.85283 | 105.92901 | 32889 ft | 489 kts | 145° |
| 2026-05-07 00:39 | -1.90662 | 105.96545 | 32892 ft | 490 kts | 145° |
| 2026-05-07 00:40 | -1.96005 | 106.00165 | 32909 ft | 489 kts | 145° |
| 2026-05-07 00:40 | -2.01323 | 106.03768 | 32907 ft | 488 kts | 144° |
| 2026-05-07 00:41 | -2.06603 | 106.07346 | 32882 ft | 489 kts | 144° |
| 2026-05-07 00:41 | -2.11949 | 106.10969 | 32884 ft | 489 kts | 144° |
| 2026-05-07 00:42 | -2.16937 | 106.14960 | 32913 ft | 487 kts | 134° |
| 2026-05-07 00:42 | -2.21063 | 106.19750 | 32909 ft | 486 kts | 127° |
| 2026-05-07 00:43 | -2.25014 | 106.24824 | 32885 ft | 487 kts | 127° |
| 2026-05-07 00:43 | -2.28997 | 106.29907 | 32887 ft | 487 kts | 127° |
| 2026-05-07 00:44 | -2.32909 | 106.34907 | 32911 ft | 487 kts | 127° |
| 2026-05-07 00:44 | -2.36825 | 106.39916 | 32909 ft | 487 kts | 127° |
| 2026-05-07 00:45 | -2.40805 | 106.45008 | 32885 ft | 487 kts | 127° |
| 2026-05-07 00:45 | -2.44723 | 106.50022 | 32886 ft | 487 kts | 127° |
| 2026-05-07 00:46 | -2.48680 | 106.55086 | 32905 ft | 487 kts | 127° |
| 2026-05-07 00:46 | -2.52652 | 106.60170 | 32910 ft | 487 kts | 127° |
| 2026-05-07 00:47 | -2.56624 | 106.65254 | 32883 ft | 487 kts | 127° |
| 2026-05-07 00:47 | -2.60562 | 106.70295 | 32883 ft | 488 kts | 127° |
| 2026-05-07 00:48 | -2.64501 | 106.75338 | 32908 ft | 488 kts | 127° |
| 2026-05-07 00:48 | -2.68445 | 106.80388 | 32904 ft | 487 kts | 127° |
| 2026-05-07 00:49 | -2.72389 | 106.85439 | 32881 ft | 488 kts | 127° |
| 2026-05-07 00:49 | -2.76413 | 106.90593 | 32881 ft | 488 kts | 127° |
| 2026-05-07 00:50 | -2.80408 | 106.95709 | 32902 ft | 488 kts | 127° |
| 2026-05-07 00:50 | -2.84298 | 107.00694 | 32902 ft | 488 kts | 127° |
| 2026-05-07 00:51 | -2.88252 | 107.05759 | 32897 ft | 488 kts | 127° |
| 2026-05-07 00:51 | -2.92221 | 107.10845 | 32883 ft | 488 kts | 127° |
| 2026-05-07 00:52 | -2.96201 | 107.15946 | 32898 ft | 489 kts | 127° |
| 2026-05-07 00:52 | -3.00151 | 107.21008 | 32898 ft | 488 kts | 127° |
| 2026-05-07 00:53 | -3.04108 | 107.26081 | 32902 ft | 488 kts | 127° |
| 2026-05-07 00:53 | -3.08057 | 107.31145 | 32902 ft | 489 kts | 127° |
| 2026-05-07 00:54 | -3.11989 | 107.36186 | 32902 ft | 488 kts | 127° |
| 2026-05-07 00:54 | -3.15939 | 107.41252 | 32902 ft | 488 kts | 127° |
| 2026-05-07 00:55 | -3.19959 | 107.46408 | 32901 ft | 489 kts | 127° |
| 2026-05-07 00:55 | -3.23891 | 107.51451 | 32901 ft | 489 kts | 127° |
| 2026-05-07 00:56 | -3.27784 | 107.56446 | 32901 ft | 489 kts | 127° |
| 2026-05-07 00:56 | -3.32133 | 107.61123 | 32903 ft | 491 kts | 140° |
| 2026-05-07 00:57 | -3.37618 | 107.64491 | 32905 ft | 493 kts | 155° |
| 2026-05-07 00:57 | -3.43583 | 107.67031 | 32905 ft | 493 kts | 155° |
| 2026-05-07 00:58 | -3.49491 | 107.69587 | 32904 ft | 493 kts | 155° |
| 2026-05-07 00:58 | -3.55512 | 107.72190 | 32905 ft | 493 kts | 155° |
| 2026-05-07 00:59 | -3.64528 | 107.76081 | 32902 ft | 492 kts | 155° |
| 2026-05-07 01:00 | -3.70425 | 107.78627 | 32902 ft | 493 kts | 155° |
| 2026-05-07 01:00 | -3.76351 | 107.81184 | 32907 ft | 492 kts | 155° |
| 2026-05-07 01:01 | -3.82329 | 107.83765 | 32907 ft | 492 kts | 155° |
| 2026-05-07 01:01 | -3.88241 | 107.86318 | 32903 ft | 492 kts | 155° |
| 2026-05-07 01:02 | -3.94155 | 107.88873 | 32906 ft | 493 kts | 155° |
| 2026-05-07 01:02 | -4.00100 | 107.91440 | 32904 ft | 492 kts | 155° |
| 2026-05-07 01:03 | -4.06134 | 107.94046 | 32906 ft | 490 kts | 155° |
| 2026-05-07 01:03 | -4.12012 | 107.96587 | 32905 ft | 492 kts | 156° |
| 2026-05-07 01:04 | -4.17886 | 107.99125 | 32906 ft | 492 kts | 155° |
| 2026-05-07 01:04 | -4.23886 | 108.01718 | 32904 ft | 491 kts | 155° |
| 2026-05-07 01:05 | -4.29799 | 108.04274 | 32905 ft | 492 kts | 155° |
| 2026-05-07 01:05 | -4.35737 | 108.06843 | 32908 ft | 494 kts | 156° |
| 2026-05-07 01:06 | -4.41715 | 108.09427 | 32904 ft | 494 kts | 156° |
| 2026-05-07 01:06 | -4.47680 | 108.12007 | 32904 ft | 493 kts | 155° |
| 2026-05-07 01:07 | -4.53606 | 108.14571 | 32905 ft | 494 kts | 155° |
| 2026-05-07 01:07 | -4.59554 | 108.17145 | 32907 ft | 494 kts | 156° |
| 2026-05-07 01:08 | -4.65479 | 108.19708 | 32904 ft | 493 kts | 156° |
| 2026-05-07 01:08 | -4.71329 | 108.22240 | 32905 ft | 493 kts | 155° |
| 2026-05-07 01:09 | -4.77231 | 108.24796 | 32905 ft | 494 kts | 156° |
| 2026-05-07 01:09 | -4.83138 | 108.27353 | 32905 ft | 494 kts | 156° |
| 2026-05-07 01:10 | -4.89152 | 108.29957 | 32907 ft | 494 kts | 155° |
| 2026-05-07 01:10 | -4.95161 | 108.32560 | 32907 ft | 494 kts | 156° |
| 2026-05-07 01:11 | -5.01122 | 108.35144 | 32908 ft | 495 kts | 156° |
| 2026-05-07 01:11 | -5.07071 | 108.37721 | 32905 ft | 494 kts | 156° |
| 2026-05-07 01:12 | -5.12948 | 108.40267 | 32907 ft | 493 kts | 155° |
| 2026-05-07 01:12 | -5.18900 | 108.42849 | 32909 ft | 493 kts | 156° |
| 2026-05-07 01:13 | -5.24819 | 108.45415 | 32911 ft | 494 kts | 156° |
| 2026-05-07 01:13 | -5.30840 | 108.48025 | 32912 ft | 493 kts | 156° |
| 2026-05-07 01:14 | -5.36794 | 108.50608 | 32914 ft | 494 kts | 156° |
| 2026-05-07 01:14 | -5.42662 | 108.53154 | 32912 ft | 494 kts | 156° |
| 2026-05-07 01:15 | -5.48569 | 108.55718 | 32915 ft | 494 kts | 156° |
| 2026-05-07 01:15 | -5.54555 | 108.58316 | 32915 ft | 494 kts | 156° |
| 2026-05-07 01:16 | -5.60531 | 108.60911 | 32914 ft | 494 kts | 156° |
| 2026-05-07 01:16 | -5.66464 | 108.63487 | 32915 ft | 494 kts | 156° |
| 2026-05-07 01:17 | -5.72348 | 108.66043 | 32916 ft | 494 kts | 156° |
| 2026-05-07 01:17 | -5.78370 | 108.68659 | 32915 ft | 494 kts | 156° |
| 2026-05-07 01:18 | -5.84291 | 108.71232 | 32917 ft | 493 kts | 156° |
| 2026-05-07 01:18 | -5.90211 | 108.73805 | 32919 ft | 492 kts | 156° |
| 2026-05-07 01:19 | -5.96086 | 108.76359 | 32919 ft | 493 kts | 156° |
| 2026-05-07 01:19 | -6.02073 | 108.78963 | 32918 ft | 494 kts | 156° |
| 2026-05-07 01:20 | -6.08042 | 108.81559 | 32918 ft | 494 kts | 156° |
| 2026-05-07 01:20 | -6.13969 | 108.84137 | 32917 ft | 492 kts | 156° |
| 2026-05-07 01:21 | -6.19880 | 108.86710 | 32921 ft | 492 kts | 156° |
| 2026-05-07 01:21 | -6.25837 | 108.89303 | 32920 ft | 492 kts | 156° |
| 2026-05-07 01:22 | -6.31732 | 108.91869 | 32919 ft | 492 kts | 156° |
| 2026-05-07 01:22 | -6.37635 | 108.94440 | 32920 ft | 492 kts | 156° |
| 2026-05-07 01:23 | -6.43597 | 108.97037 | 32920 ft | 493 kts | 156° |
| 2026-05-07 01:23 | -6.49518 | 108.99616 | 32917 ft | 490 kts | 156° |
| 2026-05-07 01:24 | -6.55413 | 109.02186 | 32918 ft | 492 kts | 156° |
| 2026-05-07 01:24 | -6.61379 | 109.04787 | 32919 ft | 492 kts | 156° |
| 2026-05-07 01:25 | -6.67200 | 109.07325 | 32920 ft | 491 kts | 156° |
| 2026-05-07 01:25 | -6.73097 | 109.09898 | 32922 ft | 492 kts | 156° |
| 2026-05-07 01:26 | -6.78949 | 109.12451 | 32921 ft | 493 kts | 156° |
| 2026-05-07 01:26 | -6.84833 | 109.15019 | 32925 ft | 492 kts | 156° |
| 2026-05-07 01:27 | -6.90754 | 109.17603 | 32936 ft | 492 kts | 156° |
| 2026-05-07 01:27 | -6.96659 | 109.20181 | 32937 ft | 493 kts | 156° |
| 2026-05-07 01:28 | -7.02604 | 109.22778 | 32940 ft | 492 kts | 156° |
| 2026-05-07 01:28 | -7.08461 | 109.25336 | 32940 ft | 491 kts | 156° |
| 2026-05-07 01:29 | -7.14336 | 109.27904 | 32937 ft | 492 kts | 156° |
| 2026-05-07 01:29 | -7.20214 | 109.30473 | 32942 ft | 489 kts | 156° |
| 2026-05-07 01:30 | -7.26070 | 109.33034 | 32941 ft | 487 kts | 156° |
| 2026-05-07 01:30 | -7.31963 | 109.35611 | 32948 ft | 491 kts | 156° |
| 2026-05-07 01:31 | -7.37889 | 109.38204 | 32947 ft | 490 kts | 156° |
| 2026-05-07 01:31 | -7.43858 | 109.40816 | 32944 ft | 489 kts | 156° |
| 2026-05-07 01:32 | -7.49764 | 109.43401 | 32945 ft | 490 kts | 156° |
| 2026-05-07 01:32 | -7.55646 | 109.45978 | 32946 ft | 492 kts | 156° |
| 2026-05-07 01:33 | -7.61514 | 109.48548 | 32934 ft | 490 kts | 157° |
| 2026-05-07 01:33 | -7.67424 | 109.51137 | 32934 ft | 490 kts | 157° |
| 2026-05-07 01:34 | -7.73276 | 109.53702 | 32924 ft | 491 kts | 157° |
| 2026-05-07 01:34 | -7.79132 | 109.56269 | 32923 ft | 491 kts | 157° |
| 2026-05-07 01:35 | -7.85037 | 109.58858 | 32926 ft | 491 kts | 157° |
| 2026-05-07 01:35 | -7.90999 | 109.61475 | 32922 ft | 488 kts | 157° |
| 2026-05-07 01:36 | -7.96703 | 109.63977 | 32923 ft | 488 kts | 157° |
| 2026-05-07 01:36 | -8.02394 | 109.66475 | 32938 ft | 489 kts | 157° |
| 2026-05-07 01:37 | -8.08212 | 109.69030 | 32933 ft | 489 kts | 157° |
| 2026-05-07 01:37 | -8.14101 | 109.71617 | 32934 ft | 487 kts | 157° |
| 2026-05-07 01:38 | -8.20074 | 109.74240 | 32938 ft | 489 kts | 157° |
| 2026-05-07 01:38 | -8.25980 | 109.76837 | 32938 ft | 488 kts | 158° |
| 2026-05-07 01:39 | -8.31862 | 109.79423 | 32935 ft | 485 kts | 157° |
| 2026-05-07 01:39 | -8.37643 | 109.81965 | 32939 ft | 488 kts | 158° |
| 2026-05-07 01:40 | -8.43551 | 109.84564 | 32938 ft | 486 kts | 158° |
| 2026-05-07 01:40 | -8.49360 | 109.87122 | 32938 ft | 484 kts | 157° |
| 2026-05-07 01:41 | -8.55274 | 109.89723 | 32940 ft | 489 kts | 157° |
| 2026-05-07 01:41 | -8.61223 | 109.92344 | 32940 ft | 488 kts | 158° |
| 2026-05-07 01:42 | -8.67048 | 109.94911 | 32941 ft | 487 kts | 158° |
| 2026-05-07 01:42 | -8.73003 | 109.97534 | 32942 ft | 489 kts | 158° |
| 2026-05-07 01:43 | -8.78980 | 110.00170 | 32943 ft | 488 kts | 158° |
| 2026-05-07 01:43 | -8.84848 | 110.02757 | 32943 ft | 488 kts | 158° |
| 2026-05-07 01:44 | -8.90694 | 110.05335 | 32943 ft | 489 kts | 158° |
| 2026-05-07 01:44 | -8.96588 | 110.07938 | 32942 ft | 490 kts | 158° |
| 2026-05-07 01:45 | -9.02501 | 110.10548 | 32945 ft | 489 kts | 158° |
| 2026-05-07 01:45 | -9.08470 | 110.13184 | 32941 ft | 490 kts | 158° |
| 2026-05-07 01:46 | -9.14379 | 110.15795 | 32947 ft | 488 kts | 158° |
| 2026-05-07 01:46 | -9.20312 | 110.18416 | 32949 ft | 490 kts | 158° |
| 2026-05-07 01:47 | -9.26240 | 110.21037 | 32948 ft | 490 kts | 158° |
| 2026-05-07 01:47 | -9.32109 | 110.23634 | 32948 ft | 489 kts | 159° |
| 2026-05-07 01:48 | -9.37969 | 110.26225 | 32948 ft | 490 kts | 158° |
| 2026-05-07 01:48 | -9.43831 | 110.28820 | 32949 ft | 490 kts | 158° |
| 2026-05-07 01:49 | -9.49768 | 110.31449 | 32949 ft | 489 kts | 159° |
| 2026-05-07 01:49 | -9.55626 | 110.34043 | 32949 ft | 491 kts | 158° |
| 2026-05-07 01:50 | -9.61551 | 110.36670 | 32948 ft | 490 kts | 158° |
| 2026-05-07 01:50 | -9.67435 | 110.39277 | 32945 ft | 490 kts | 158° |
| 2026-05-07 01:51 | -9.73296 | 110.41875 | 32948 ft | 490 kts | 159° |
| 2026-05-07 01:51 | -9.79162 | 110.44477 | 32949 ft | 489 kts | 158° |
| 2026-05-07 01:52 | -9.85067 | 110.47096 | 32950 ft | 490 kts | 158° |
| 2026-05-07 01:52 | -9.90872 | 110.49673 | 32949 ft | 490 kts | 159° |
| 2026-05-07 01:53 | -9.96762 | 110.52283 | 32953 ft | 491 kts | 159° |
| 2026-05-07 01:53 | -10.02723 | 110.54914 | 32954 ft | 491 kts | 159° |
| 2026-05-07 01:54 | -10.08635 | 110.57524 | 32953 ft | 491 kts | 159° |
| 2026-05-07 01:54 | -10.14470 | 110.60102 | 32954 ft | 491 kts | 159° |
| 2026-05-07 01:55 | -10.20253 | 110.62659 | 32954 ft | 491 kts | 159° |
| 2026-05-07 01:55 | -10.26168 | 110.65275 | 32953 ft | 491 kts | 159° |
| 2026-05-07 01:56 | -10.32053 | 110.67878 | 32953 ft | 491 kts | 159° |
| 2026-05-07 01:56 | -10.37913 | 110.70472 | 32957 ft | 491 kts | 159° |
| 2026-05-07 01:57 | -10.43805 | 110.73081 | 32956 ft | 491 kts | 159° |
| 2026-05-07 01:57 | -10.49719 | 110.75701 | 32956 ft | 491 kts | 159° |
| 2026-05-07 01:58 | -10.55563 | 110.78291 | 32957 ft | 491 kts | 159° |
| 2026-05-07 01:58 | -10.61467 | 110.80908 | 32957 ft | 491 kts | 159° |
| 2026-05-07 01:59 | -10.67304 | 110.83498 | 32955 ft | 490 kts | 159° |
| 2026-05-07 01:59 | -10.73230 | 110.86127 | 32960 ft | 490 kts | 159° |
| 2026-05-07 02:00 | -10.79080 | 110.88724 | 32960 ft | 490 kts | 159° |
| 2026-05-07 02:00 | -10.84981 | 110.91345 | 32961 ft | 490 kts | 159° |
| 2026-05-07 02:01 | -10.90789 | 110.93926 | 32958 ft | 490 kts | 159° |
| 2026-05-07 02:01 | -10.96685 | 110.96547 | 32957 ft | 489 kts | 159° |
| 2026-05-07 02:02 | -11.02531 | 110.99146 | 32964 ft | 488 kts | 159° |
| 2026-05-07 02:02 | -11.08348 | 111.01734 | 32962 ft | 488 kts | 159° |
| 2026-05-07 02:03 | -11.14210 | 111.04343 | 32965 ft | 488 kts | 159° |
| 2026-05-07 02:03 | -11.20110 | 111.06970 | 32965 ft | 488 kts | 159° |
| 2026-05-07 02:04 | -11.26046 | 111.09614 | 32970 ft | 488 kts | 159° |
| 2026-05-07 02:04 | -11.31892 | 111.12220 | 32967 ft | 489 kts | 159° |
| 2026-05-07 02:05 | -11.37755 | 111.14835 | 32967 ft | 488 kts | 159° |
| 2026-05-07 02:05 | -11.43643 | 111.17461 | 32968 ft | 488 kts | 159° |
| 2026-05-07 02:06 | -11.49469 | 111.20061 | 32968 ft | 488 kts | 159° |
| 2026-05-07 02:06 | -11.55296 | 111.22662 | 32969 ft | 488 kts | 159° |
| 2026-05-07 02:07 | -11.61141 | 111.25274 | 32959 ft | 488 kts | 160° |
| 2026-05-07 02:07 | -11.69915 | 111.29194 | 32978 ft | 489 kts | 159° |
| 2026-05-07 02:08 | -11.75793 | 111.31823 | 32975 ft | 489 kts | 159° |
| 2026-05-07 02:08 | -11.81661 | 111.34448 | 32959 ft | 489 kts | 159° |
| 2026-05-07 02:09 | -11.87537 | 111.37078 | 32958 ft | 489 kts | 159° |
| 2026-05-07 02:09 | -11.93319 | 111.39668 | 32978 ft | 489 kts | 160° |
| 2026-05-07 02:10 | -11.99087 | 111.42440 | 32985 ft | 493 kts | 154° |
| 2026-05-07 02:10 | -12.04398 | 111.46236 | 32982 ft | 498 kts | 144° |
| 2026-05-07 02:11 | -12.09567 | 111.50479 | 32964 ft | 498 kts | 145° |
| 2026-05-07 02:11 | -12.14638 | 111.54604 | 32964 ft | 498 kts | 145° |
| 2026-05-07 02:12 | -12.19651 | 111.58690 | 32988 ft | 497 kts | 145° |
| 2026-05-07 02:12 | -12.24713 | 111.62823 | 32995 ft | 498 kts | 145° |
| 2026-05-07 02:13 | -12.29782 | 111.66964 | 32976 ft | 499 kts | 145° |
| 2026-05-07 02:13 | -12.34829 | 111.71090 | 32976 ft | 499 kts | 145° |
| 2026-05-07 02:14 | -12.39954 | 111.75282 | 32982 ft | 499 kts | 145° |
| 2026-05-07 02:14 | -12.45087 | 111.79483 | 32980 ft | 499 kts | 145° |
| 2026-05-07 02:15 | -12.50202 | 111.83672 | 32982 ft | 497 kts | 145° |
| 2026-05-07 02:15 | -12.55280 | 111.87831 | 32979 ft | 497 kts | 145° |
| 2026-05-07 02:16 | -12.60342 | 111.91980 | 32981 ft | 499 kts | 145° |
| 2026-05-07 02:16 | -12.65421 | 111.96145 | 32982 ft | 499 kts | 145° |
| 2026-05-07 02:17 | -12.70558 | 112.00361 | 32980 ft | 499 kts | 145° |
| 2026-05-07 02:17 | -12.75609 | 112.04507 | 32983 ft | 499 kts | 145° |
| 2026-05-07 02:18 | -12.80716 | 112.08702 | 32988 ft | 499 kts | 145° |
| 2026-05-07 02:18 | -12.85793 | 112.12875 | 32984 ft | 499 kts | 145° |
| 2026-05-07 02:19 | -12.90912 | 112.17084 | 32984 ft | 500 kts | 145° |
| 2026-05-07 02:19 | -12.96084 | 112.21339 | 32986 ft | 500 kts | 145° |
| 2026-05-07 02:20 | -13.01168 | 112.25523 | 32982 ft | 500 kts | 145° |
| 2026-05-07 02:20 | -13.06254 | 112.29713 | 32985 ft | 500 kts | 145° |
| 2026-05-07 02:21 | -13.11404 | 112.33957 | 32987 ft | 500 kts | 145° |
| 2026-05-07 02:21 | -13.16545 | 112.38195 | 32990 ft | 500 kts | 145° |
| 2026-05-07 02:22 | -13.21622 | 112.42384 | 32989 ft | 501 kts | 146° |
| 2026-05-07 02:22 | -13.26709 | 112.46582 | 32991 ft | 502 kts | 146° |
| 2026-05-07 02:23 | -13.31878 | 112.50852 | 32993 ft | 502 kts | 146° |
| 2026-05-07 02:23 | -13.37053 | 112.55128 | 32992 ft | 502 kts | 146° |
| 2026-05-07 02:24 | -13.42150 | 112.59343 | 32992 ft | 502 kts | 146° |
| 2026-05-07 02:24 | -13.47314 | 112.63614 | 32995 ft | 502 kts | 146° |
| 2026-05-07 02:25 | -13.52505 | 112.67911 | 32993 ft | 502 kts | 146° |
| 2026-05-07 02:25 | -13.57598 | 112.72130 | 32995 ft | 502 kts | 146° |
| 2026-05-07 02:26 | -13.61810 | 112.75620 | 32995 ft | 502 kts | 146° |
| 2026-05-07 02:26 | -13.67746 | 112.80542 | 32993 ft | 502 kts | 146° |
| 2026-05-07 02:27 | -13.72875 | 112.84797 | 32990 ft | 502 kts | 146° |
| 2026-05-07 02:27 | -13.78073 | 112.89112 | 32992 ft | 502 kts | 146° |
| 2026-05-07 02:28 | -13.82331 | 112.92649 | 32998 ft | 503 kts | 146° |
| 2026-05-07 02:28 | -13.87499 | 112.96943 | 32998 ft | 504 kts | 146° |
| 2026-05-07 02:29 | -13.93486 | 113.01922 | 32998 ft | 504 kts | 146° |
| 2026-05-07 02:29 | -13.98713 | 113.06271 | 32997 ft | 503 kts | 146° |
| 2026-05-07 02:30 | -14.02983 | 113.09826 | 32997 ft | 504 kts | 146° |
| 2026-05-07 02:30 | -14.08184 | 113.14158 | 33003 ft | 504 kts | 146° |
| 2026-05-07 02:31 | -14.14173 | 113.19149 | 33000 ft | 505 kts | 146° |
| 2026-05-07 02:31 | -14.18507 | 113.22763 | 33003 ft | 505 kts | 146° |
| 2026-05-07 02:32 | -14.23677 | 113.27079 | 33003 ft | 505 kts | 146° |
| 2026-05-07 02:32 | -14.29695 | 113.32106 | 33005 ft | 505 kts | 146° |
| 2026-05-07 02:33 | -14.34022 | 113.35722 | 33005 ft | 505 kts | 146° |
| 2026-05-07 02:33 | -14.39170 | 113.40026 | 33006 ft | 505 kts | 146° |
| 2026-05-07 02:34 | -14.44354 | 113.44363 | 33003 ft | 505 kts | 146° |
| 2026-05-07 02:34 | -14.49477 | 113.48651 | 33003 ft | 505 kts | 146° |
| 2026-05-07 02:35 | -14.54660 | 113.52992 | 33009 ft | 505 kts | 146° |
| 2026-05-07 02:35 | -14.60623 | 113.57990 | 33008 ft | 505 kts | 146° |
| 2026-05-07 02:36 | -14.64904 | 113.61580 | 33008 ft | 505 kts | 146° |
| 2026-05-07 02:36 | -14.69989 | 113.65848 | 33008 ft | 505 kts | 146° |
| 2026-05-07 02:37 | -14.75200 | 113.70223 | 33008 ft | 505 kts | 146° |
| 2026-05-07 02:37 | -14.80349 | 113.74550 | 33011 ft | 504 kts | 146° |
| 2026-05-07 02:38 | -14.85416 | 113.78809 | 33008 ft | 505 kts | 146° |
| 2026-05-07 02:38 | -14.90580 | 113.83154 | 33013 ft | 505 kts | 146° |
| 2026-05-07 02:39 | -14.95737 | 113.87495 | 33014 ft | 505 kts | 146° |
| 2026-05-07 02:39 | -15.00865 | 113.91814 | 33014 ft | 505 kts | 146° |
| 2026-05-07 02:40 | -15.05905 | 113.96063 | 33015 ft | 504 kts | 146° |
| 2026-05-07 02:40 | -15.11061 | 114.00412 | 33013 ft | 504 kts | 146° |
| 2026-05-07 02:41 | -15.16158 | 114.04713 | 33016 ft | 504 kts | 146° |
| 2026-05-07 02:41 | -15.21353 | 114.09100 | 33014 ft | 504 kts | 146° |
| 2026-05-07 02:42 | -15.26502 | 114.13451 | 33015 ft | 504 kts | 146° |
| 2026-05-07 02:42 | -15.31609 | 114.17770 | 33025 ft | 504 kts | 146° |
| 2026-05-07 02:43 | -15.36734 | 114.22107 | 33016 ft | 505 kts | 147° |
| 2026-05-07 02:43 | -15.41833 | 114.26423 | 33016 ft | 505 kts | 147° |
| 2026-05-07 02:44 | -15.46959 | 114.30767 | 33016 ft | 505 kts | 147° |
| 2026-05-07 02:44 | -15.52051 | 114.35083 | 33016 ft | 505 kts | 146° |
| 2026-05-07 02:45 | -15.57162 | 114.39420 | 33019 ft | 505 kts | 147° |
| 2026-05-07 02:45 | -15.62280 | 114.43766 | 33019 ft | 505 kts | 147° |
| 2026-05-07 02:46 | -15.67428 | 114.48138 | 33015 ft | 505 kts | 147° |
| 2026-05-07 02:46 | -15.72508 | 114.52456 | 33018 ft | 505 kts | 147° |
| 2026-05-07 02:47 | -15.77656 | 114.56836 | 33017 ft | 505 kts | 147° |
| 2026-05-07 02:47 | -15.82734 | 114.61158 | 33016 ft | 505 kts | 147° |
| 2026-05-07 02:48 | -15.87881 | 114.65542 | 33014 ft | 505 kts | 147° |
| 2026-05-07 02:48 | -15.93000 | 114.69906 | 33022 ft | 505 kts | 147° |
| 2026-05-07 02:49 | -15.98165 | 114.74312 | 33011 ft | 505 kts | 147° |
| 2026-05-07 02:49 | -16.03244 | 114.78647 | 33006 ft | 505 kts | 147° |
| 2026-05-07 02:50 | -16.08334 | 114.82994 | 33030 ft | 505 kts | 147° |
| 2026-05-07 02:50 | -16.13442 | 114.87360 | 33029 ft | 505 kts | 147° |
| 2026-05-07 02:51 | -16.18583 | 114.91757 | 33029 ft | 505 kts | 147° |
| 2026-05-07 02:51 | -16.23705 | 114.96141 | 33022 ft | 505 kts | 147° |
| 2026-05-07 02:52 | -16.28851 | 115.00548 | 33022 ft | 505 kts | 147° |
| 2026-05-07 02:52 | -16.33975 | 115.04938 | 33024 ft | 505 kts | 147° |
| 2026-05-07 02:53 | -16.39165 | 115.09387 | 33023 ft | 505 kts | 147° |
| 2026-05-07 02:53 | -16.44255 | 115.13754 | 33027 ft | 505 kts | 147° |
| 2026-05-07 02:54 | -16.49351 | 115.18141 | 33023 ft | 505 kts | 147° |
| 2026-05-07 02:54 | -16.54530 | 115.22602 | 33027 ft | 505 kts | 147° |
| 2026-05-07 02:55 | -16.59614 | 115.26981 | 33027 ft | 505 kts | 147° |
| 2026-05-07 02:55 | -16.64678 | 115.31346 | 33027 ft | 505 kts | 147° |
| 2026-05-07 02:56 | -16.69839 | 115.35798 | 33026 ft | 505 kts | 147° |
| 2026-05-07 02:56 | -16.74855 | 115.40127 | 33031 ft | 505 kts | 147° |
| 2026-05-07 02:57 | -16.79922 | 115.44505 | 33027 ft | 505 kts | 147° |
| 2026-05-07 02:57 | -16.85058 | 115.48943 | 33028 ft | 505 kts | 147° |
| 2026-05-07 02:58 | -16.90111 | 115.53314 | 33028 ft | 505 kts | 147° |
| 2026-05-07 02:58 | -16.95240 | 115.57754 | 33027 ft | 505 kts | 147° |
| 2026-05-07 02:59 | -17.00394 | 115.62219 | 33027 ft | 505 kts | 147° |
| 2026-05-07 02:59 | -17.05498 | 115.66645 | 33034 ft | 505 kts | 148° |
| 2026-05-07 03:00 | -17.10564 | 115.71040 | 33035 ft | 505 kts | 148° |
| 2026-05-07 03:00 | -17.15641 | 115.75447 | 33033 ft | 505 kts | 148° |
| 2026-05-07 03:01 | -17.20778 | 115.79910 | 33024 ft | 505 kts | 148° |
| 2026-05-07 03:01 | -17.25897 | 115.84361 | 33026 ft | 505 kts | 148° |
| 2026-05-07 03:02 | -17.30922 | 115.88733 | 33022 ft | 505 kts | 147° |
| 2026-05-07 03:02 | -17.35998 | 115.93155 | 33028 ft | 506 kts | 148° |
| 2026-05-07 03:03 | -17.41118 | 115.97616 | 33026 ft | 505 kts | 148° |
| 2026-05-07 03:03 | -17.46227 | 116.02071 | 33022 ft | 505 kts | 148° |
| 2026-05-07 03:04 | -17.51363 | 116.06553 | 33028 ft | 505 kts | 148° |
| 2026-05-07 03:04 | -17.56459 | 116.11004 | 33025 ft | 505 kts | 148° |
| 2026-05-07 03:05 | -17.61491 | 116.15403 | 33037 ft | 506 kts | 148° |
| 2026-05-07 03:05 | -17.66537 | 116.19816 | 33031 ft | 506 kts | 148° |
| 2026-05-07 03:06 | -17.71615 | 116.24262 | 33035 ft | 506 kts | 148° |
| 2026-05-07 03:06 | -17.76720 | 116.28734 | 33028 ft | 506 kts | 148° |
| 2026-05-07 03:07 | -17.81741 | 116.33136 | 33030 ft | 506 kts | 148° |
| 2026-05-07 03:07 | -17.86811 | 116.37584 | 33030 ft | 506 kts | 148° |
| 2026-05-07 03:08 | -17.91811 | 116.41975 | 33029 ft | 506 kts | 149° |
| 2026-05-07 03:08 | -17.96843 | 116.46397 | 33030 ft | 506 kts | 149° |
| 2026-05-07 03:09 | -18.01897 | 116.50841 | 33033 ft | 506 kts | 149° |
| 2026-05-07 03:09 | -18.06970 | 116.55306 | 33033 ft | 506 kts | 149° |
| 2026-05-07 03:10 | -18.12024 | 116.59756 | 33033 ft | 506 kts | 149° |
| 2026-05-07 03:10 | -18.17110 | 116.64240 | 33028 ft | 506 kts | 149° |
| 2026-05-07 03:11 | -18.22180 | 116.68710 | 33034 ft | 506 kts | 149° |
| 2026-05-07 03:11 | -18.27233 | 116.73165 | 33036 ft | 506 kts | 149° |
| 2026-05-07 03:12 | -18.32226 | 116.77572 | 33031 ft | 506 kts | 149° |
| 2026-05-07 03:12 | -18.37260 | 116.82020 | 33033 ft | 506 kts | 149° |
| 2026-05-07 03:13 | -18.42366 | 116.86536 | 33057 ft | 506 kts | 149° |
| 2026-05-07 03:13 | -18.47466 | 116.91051 | 33033 ft | 504 kts | 149° |
| 2026-05-07 03:14 | -18.52474 | 116.95486 | 33032 ft | 504 kts | 149° |
| 2026-05-07 03:15 | -18.60012 | 117.02167 | 33033 ft | 505 kts | 149° |
| 2026-05-07 03:15 | -18.65065 | 117.06651 | 33041 ft | 505 kts | 149° |
| 2026-05-07 03:16 | -18.70091 | 117.11116 | 33062 ft | 505 kts | 149° |
| 2026-05-07 03:16 | -18.75136 | 117.15601 | 33040 ft | 504 kts | 149° |
| 2026-05-07 03:17 | -18.80172 | 117.20080 | 33041 ft | 505 kts | 149° |
| 2026-05-07 03:17 | -18.85203 | 117.24559 | 33046 ft | 505 kts | 149° |
| 2026-05-07 03:18 | -18.90249 | 117.29056 | 33047 ft | 505 kts | 149° |
| 2026-05-07 03:18 | -18.95281 | 117.33543 | 33047 ft | 505 kts | 149° |
| 2026-05-07 03:19 | -19.00266 | 117.37992 | 33049 ft | 506 kts | 150° |
| 2026-05-07 03:19 | -19.05354 | 117.42537 | 33049 ft | 505 kts | 150° |
| 2026-05-07 03:20 | -19.10507 | 117.47144 | 33051 ft | 505 kts | 150° |
| 2026-05-07 03:20 | -19.15579 | 117.51681 | 33052 ft | 506 kts | 149° |
| 2026-05-07 03:21 | -19.20660 | 117.56231 | 33059 ft | 506 kts | 149° |
| 2026-05-07 03:21 | -19.25747 | 117.60791 | 33057 ft | 506 kts | 149° |
| 2026-05-07 03:22 | -19.30895 | 117.65408 | 33060 ft | 506 kts | 149° |
| 2026-05-07 03:22 | -19.35882 | 117.69885 | 33060 ft | 506 kts | 149° |
| 2026-05-07 03:23 | -19.40880 | 117.74376 | 33058 ft | 506 kts | 149° |
| 2026-05-07 03:23 | -19.45977 | 117.78960 | 33056 ft | 506 kts | 149° |
| 2026-05-07 03:24 | -19.51058 | 117.83533 | 33069 ft | 506 kts | 150° |
| 2026-05-07 03:24 | -19.56082 | 117.88059 | 33061 ft | 506 kts | 150° |
| 2026-05-07 03:25 | -19.61130 | 117.92609 | 33065 ft | 506 kts | 150° |
| 2026-05-07 03:25 | -19.66183 | 117.97169 | 33074 ft | 506 kts | 150° |
| 2026-05-07 03:26 | -19.71197 | 118.01697 | 33065 ft | 506 kts | 150° |
| 2026-05-07 03:26 | -19.76269 | 118.06282 | 33079 ft | 506 kts | 150° |
| 2026-05-07 03:27 | -19.81323 | 118.10853 | 33074 ft | 506 kts | 150° |
| 2026-05-07 03:27 | -19.86384 | 118.15436 | 33070 ft | 506 kts | 150° |
| 2026-05-07 03:28 | -19.91416 | 118.19996 | 33074 ft | 506 kts | 150° |
| 2026-05-07 03:28 | -19.96440 | 118.24552 | 33073 ft | 506 kts | 150° |
| 2026-05-07 03:29 | -20.01520 | 118.29164 | 33095 ft | 506 kts | 150° |
| 2026-05-07 03:29 | -20.06621 | 118.33800 | 33076 ft | 506 kts | 150° |
| 2026-05-07 03:30 | -20.11582 | 118.38311 | 33066 ft | 506 kts | 150° |
| 2026-05-07 03:30 | -20.16616 | 118.42892 | 33081 ft | 506 kts | 150° |
| 2026-05-07 03:31 | -20.21687 | 118.47512 | 33090 ft | 506 kts | 150° |
| 2026-05-07 03:31 | -20.26704 | 118.52086 | 33094 ft | 506 kts | 150° |
| 2026-05-07 03:32 | -20.31721 | 118.56665 | 33083 ft | 506 kts | 150° |
| 2026-05-07 03:32 | -20.36780 | 118.61284 | 33082 ft | 506 kts | 149° |
| 2026-05-07 03:33 | -20.41517 | 118.66312 | 33079 ft | 515 kts | 144° |
| 2026-05-07 03:33 | -20.46191 | 118.71461 | 33080 ft | 515 kts | 144° |
| 2026-05-07 03:34 | -20.50877 | 118.76611 | 33110 ft | 515 kts | 144° |
| 2026-05-07 03:34 | -20.55605 | 118.81819 | 33082 ft | 515 kts | 144° |
| 2026-05-07 03:35 | -20.60295 | 118.86996 | 33082 ft | 515 kts | 144° |
| 2026-05-07 03:35 | -20.64955 | 118.92145 | 33088 ft | 515 kts | 144° |
| 2026-05-07 03:36 | -20.69660 | 118.97348 | 33089 ft | 515 kts | 144° |
| 2026-05-07 03:36 | -20.74339 | 119.02526 | 33093 ft | 516 kts | 144° |
| 2026-05-07 03:37 | -20.79010 | 119.07703 | 33094 ft | 516 kts | 144° |
| 2026-05-07 03:37 | -20.83734 | 119.12943 | 33101 ft | 516 kts | 144° |
| 2026-05-07 03:38 | -20.88439 | 119.18166 | 33098 ft | 516 kts | 144° |
| 2026-05-07 03:38 | -20.93059 | 119.23300 | 33103 ft | 516 kts | 144° |
| 2026-05-07 03:39 | -20.97751 | 119.28518 | 33101 ft | 517 kts | 144° |
| 2026-05-07 03:39 | -21.02500 | 119.33806 | 33111 ft | 517 kts | 144° |
| 2026-05-07 03:40 | -21.07100 | 119.38936 | 33114 ft | 517 kts | 144° |
| 2026-05-07 03:40 | -21.11799 | 119.44178 | 33119 ft | 517 kts | 144° |
| 2026-05-07 03:41 | -21.16495 | 119.49421 | 33120 ft | 517 kts | 144° |
| 2026-05-07 03:41 | -21.21118 | 119.54588 | 33136 ft | 518 kts | 143° |
| 2026-05-07 03:42 | -21.25762 | 119.59782 | 33124 ft | 518 kts | 143° |
| 2026-05-07 03:42 | -21.30482 | 119.65071 | 33128 ft | 517 kts | 143° |
| 2026-05-07 03:43 | -21.35120 | 119.70270 | 33128 ft | 518 kts | 143° |
| 2026-05-07 03:43 | -21.39839 | 119.75564 | 33137 ft | 518 kts | 143° |
| 2026-05-07 03:44 | -21.44504 | 119.80804 | 33134 ft | 518 kts | 143° |
| 2026-05-07 03:44 | -21.49215 | 119.86100 | 33154 ft | 518 kts | 143° |
| 2026-05-07 03:45 | -21.53834 | 119.91300 | 33145 ft | 517 kts | 143° |
| 2026-05-07 03:45 | -21.58536 | 119.96597 | 33152 ft | 517 kts | 143° |
| 2026-05-07 03:46 | -21.63226 | 120.01884 | 33154 ft | 518 kts | 143° |
| 2026-05-07 03:46 | -21.67914 | 120.07177 | 33163 ft | 517 kts | 143° |
| 2026-05-07 03:47 | -21.72556 | 120.12423 | 33163 ft | 517 kts | 143° |
| 2026-05-07 03:47 | -21.77216 | 120.17693 | 33172 ft | 518 kts | 143° |
| 2026-05-07 03:48 | -21.81935 | 120.23037 | 33170 ft | 518 kts | 143° |
| 2026-05-07 03:48 | -21.86555 | 120.28274 | 33171 ft | 518 kts | 143° |
| 2026-05-07 03:49 | -21.91164 | 120.33503 | 33171 ft | 518 kts | 143° |
| 2026-05-07 03:49 | -21.95869 | 120.38847 | 33175 ft | 517 kts | 142° |
| 2026-05-07 03:50 | -22.00553 | 120.44171 | 33176 ft | 517 kts | 142° |
| 2026-05-07 03:50 | -22.05185 | 120.49443 | 33182 ft | 517 kts | 142° |
| 2026-05-07 03:51 | -22.09786 | 120.54684 | 33180 ft | 517 kts | 142° |
| 2026-05-07 03:51 | -22.14488 | 120.60047 | 33187 ft | 517 kts | 142° |
| 2026-05-07 03:52 | -22.19171 | 120.65393 | 33193 ft | 516 kts | 142° |
| 2026-05-07 03:52 | -22.23791 | 120.70674 | 33193 ft | 515 kts | 142° |
| 2026-05-07 03:53 | -22.28465 | 120.76019 | 33198 ft | 516 kts | 142° |
| 2026-05-07 03:53 | -22.33091 | 120.81316 | 33195 ft | 516 kts | 142° |
| 2026-05-07 03:54 | -22.37693 | 120.86591 | 33197 ft | 516 kts | 142° |
| 2026-05-07 03:54 | -22.42351 | 120.91936 | 33198 ft | 514 kts | 142° |
| 2026-05-07 03:55 | -22.46994 | 120.97269 | 33209 ft | 515 kts | 141° |
| 2026-05-07 03:55 | -22.51616 | 121.02583 | 33205 ft | 515 kts | 141° |
| 2026-05-07 03:56 | -22.56269 | 121.07941 | 33203 ft | 515 kts | 141° |
| 2026-05-07 03:56 | -22.60874 | 121.13247 | 33210 ft | 515 kts | 141° |
| 2026-05-07 03:57 | -22.65461 | 121.18539 | 33204 ft | 513 kts | 141° |
| 2026-05-07 03:57 | -22.70003 | 121.23783 | 33215 ft | 513 kts | 141° |
| 2026-05-07 03:58 | -22.74676 | 121.29183 | 33218 ft | 514 kts | 141° |
| 2026-05-07 03:58 | -22.79317 | 121.34554 | 33219 ft | 514 kts | 141° |
| 2026-05-07 03:59 | -22.83896 | 121.39859 | 33255 ft | 514 kts | 141° |
| 2026-05-07 03:59 | -22.88497 | 121.45193 | 33211 ft | 512 kts | 140° |
| 2026-05-07 04:00 | -22.93054 | 121.50479 | 33241 ft | 512 kts | 141° |
| 2026-05-07 04:00 | -22.97589 | 121.55752 | 33247 ft | 513 kts | 140° |
| 2026-05-07 04:01 | -23.02189 | 121.61117 | 33230 ft | 513 kts | 140° |
| 2026-05-07 04:01 | -23.06780 | 121.66470 | 33243 ft | 512 kts | 140° |
| 2026-05-07 04:02 | -23.11377 | 121.71836 | 33237 ft | 510 kts | 140° |
| 2026-05-07 04:02 | -23.15869 | 121.77084 | 33237 ft | 511 kts | 140° |
| 2026-05-07 04:03 | -23.20446 | 121.82437 | 33242 ft | 511 kts | 140° |
| 2026-05-07 04:03 | -23.24960 | 121.87723 | 33240 ft | 513 kts | 140° |
| 2026-05-07 04:04 | -23.29514 | 121.93060 | 33238 ft | 512 kts | 139° |
| 2026-05-07 04:04 | -23.33975 | 121.98297 | 33240 ft | 510 kts | 139° |
| 2026-05-07 04:05 | -23.38581 | 122.03708 | 33245 ft | 510 kts | 139° |
| 2026-05-07 04:05 | -23.43087 | 122.09006 | 33245 ft | 511 kts | 139° |
| 2026-05-07 04:06 | -23.47625 | 122.14348 | 33250 ft | 511 kts | 139° |
| 2026-05-07 04:06 | -23.52195 | 122.19736 | 33247 ft | 510 kts | 138° |
| 2026-05-07 04:07 | -23.56675 | 122.25022 | 33251 ft | 509 kts | 138° |
| 2026-05-07 04:07 | -23.61189 | 122.30354 | 33250 ft | 510 kts | 138° |
| 2026-05-07 04:08 | -23.65734 | 122.35728 | 33250 ft | 510 kts | 138° |
| 2026-05-07 04:08 | -23.70250 | 122.41072 | 33286 ft | 511 kts | 138° |
| 2026-05-07 04:09 | -23.74860 | 122.46537 | 33246 ft | 507 kts | 137° |
| 2026-05-07 04:09 | -23.79269 | 122.51767 | 33252 ft | 507 kts | 137° |
| 2026-05-07 04:10 | -23.83805 | 122.57153 | 33271 ft | 508 kts | 137° |
| 2026-05-07 04:10 | -23.88288 | 122.62484 | 33254 ft | 508 kts | 137° |
| 2026-05-07 04:11 | -23.92783 | 122.67833 | 33246 ft | 509 kts | 137° |
| 2026-05-07 04:11 | -23.97323 | 122.73243 | 33255 ft | 509 kts | 137° |
| 2026-05-07 04:12 | -24.01827 | 122.78617 | 33275 ft | 509 kts | 137° |
| 2026-05-07 04:12 | -24.06316 | 122.83978 | 33256 ft | 509 kts | 137° |
| 2026-05-07 04:13 | -24.10867 | 122.89419 | 33254 ft | 509 kts | 137° |
| 2026-05-07 04:13 | -24.15394 | 122.94837 | 33261 ft | 506 kts | 137° |
| 2026-05-07 04:14 | -24.19847 | 123.00174 | 33263 ft | 507 kts | 137° |
| 2026-05-07 04:14 | -24.24351 | 123.05577 | 33265 ft | 507 kts | 137° |
| 2026-05-07 04:15 | -24.28870 | 123.11005 | 33267 ft | 507 kts | 137° |
| 2026-05-07 04:15 | -24.33413 | 123.16466 | 33294 ft | 507 kts | 136° |
| 2026-05-07 04:16 | -24.37888 | 123.21853 | 33269 ft | 505 kts | 136° |
| 2026-05-07 04:16 | -24.42351 | 123.27232 | 33270 ft | 505 kts | 136° |
| 2026-05-07 04:17 | -24.46832 | 123.32648 | 33275 ft | 505 kts | 136° |
| 2026-05-07 04:17 | -24.51339 | 123.38094 | 33275 ft | 505 kts | 136° |
| 2026-05-07 04:18 | -24.55776 | 123.43457 | 33280 ft | 503 kts | 136° |
| 2026-05-07 04:18 | -24.60201 | 123.48812 | 33280 ft | 503 kts | 136° |
| 2026-05-07 04:19 | -24.64598 | 123.54141 | 33283 ft | 503 kts | 136° |
| 2026-05-07 04:19 | -24.69098 | 123.59602 | 33283 ft | 503 kts | 136° |
| 2026-05-07 04:20 | -24.73498 | 123.64950 | 33305 ft | 503 kts | 135° |
| 2026-05-07 04:20 | -24.77869 | 123.70265 | 33275 ft | 500 kts | 135° |
| 2026-05-07 04:21 | -24.84515 | 123.78363 | 33291 ft | 501 kts | 135° |
| 2026-05-07 04:21 | -24.88943 | 123.83764 | 33300 ft | 501 kts | 135° |
| 2026-05-07 04:22 | -24.93326 | 123.89118 | 33316 ft | 501 kts | 135° |
| 2026-05-07 04:22 | -24.97701 | 123.94467 | 33300 ft | 498 kts | 135° |
| 2026-05-07 04:23 | -25.02088 | 123.99837 | 33302 ft | 499 kts | 135° |
| 2026-05-07 04:23 | -25.06518 | 124.05267 | 33302 ft | 500 kts | 135° |
| 2026-05-07 04:24 | -25.10917 | 124.10664 | 33307 ft | 499 kts | 135° |
| 2026-05-07 04:24 | -25.15300 | 124.16048 | 33307 ft | 498 kts | 135° |
| 2026-05-07 04:25 | -25.19692 | 124.21450 | 33310 ft | 498 kts | 135° |
| 2026-05-07 04:25 | -25.24106 | 124.26885 | 33310 ft | 499 kts | 135° |
| 2026-05-07 04:26 | -25.28514 | 124.32319 | 33310 ft | 499 kts | 134° |
| 2026-05-07 04:26 | -25.32902 | 124.37735 | 33327 ft | 498 kts | 134° |
| 2026-05-07 04:27 | -25.37239 | 124.43094 | 33318 ft | 497 kts | 134° |
| 2026-05-07 04:27 | -25.41606 | 124.48496 | 33322 ft | 497 kts | 134° |
| 2026-05-07 04:28 | -25.45967 | 124.53897 | 33320 ft | 498 kts | 134° |
| 2026-05-07 04:28 | -25.50379 | 124.59369 | 33323 ft | 498 kts | 134° |
| 2026-05-07 04:29 | -25.54758 | 124.64806 | 33321 ft | 496 kts | 134° |
| 2026-05-07 04:29 | -25.59066 | 124.70161 | 33323 ft | 495 kts | 134° |
| 2026-05-07 04:30 | -25.63397 | 124.75550 | 33327 ft | 497 kts | 134° |
| 2026-05-07 04:30 | -25.67683 | 124.80889 | 33326 ft | 498 kts | 134° |
| 2026-05-07 04:31 | -25.72079 | 124.86373 | 33338 ft | 496 kts | 134° |
| 2026-05-07 04:31 | -25.76368 | 124.91730 | 33327 ft | 493 kts | 134° |
| 2026-05-07 04:32 | -25.80634 | 124.97064 | 33327 ft | 494 kts | 134° |
| 2026-05-07 04:32 | -25.84929 | 125.02439 | 33332 ft | 495 kts | 134° |
| 2026-05-07 04:33 | -25.89288 | 125.07902 | 33335 ft | 496 kts | 134° |
| 2026-05-07 04:33 | -25.93559 | 125.13261 | 33338 ft | 495 kts | 134° |
| 2026-05-07 04:34 | -25.97894 | 125.18708 | 33336 ft | 495 kts | 134° |
| 2026-05-07 04:34 | -26.02195 | 125.24118 | 33338 ft | 495 kts | 134° |
| 2026-05-07 04:35 | -26.06493 | 125.29530 | 33338 ft | 497 kts | 134° |
| 2026-05-07 04:35 | -26.10792 | 125.34950 | 33335 ft | 496 kts | 134° |
| 2026-05-07 04:36 | -26.15131 | 125.40428 | 33340 ft | 496 kts | 134° |
| 2026-05-07 04:36 | -26.19406 | 125.45832 | 33349 ft | 496 kts | 133° |
| 2026-05-07 04:37 | -26.23712 | 125.51280 | 33343 ft | 496 kts | 133° |
| 2026-05-07 04:37 | -26.28051 | 125.56777 | 33349 ft | 497 kts | 133° |
| 2026-05-07 04:38 | -26.32345 | 125.62226 | 33351 ft | 495 kts | 133° |
| 2026-05-07 04:38 | -26.36624 | 125.67660 | 33351 ft | 495 kts | 133° |
| 2026-05-07 04:39 | -26.40881 | 125.73073 | 33355 ft | 495 kts | 133° |
| 2026-05-07 04:39 | -26.45140 | 125.78495 | 33355 ft | 496 kts | 133° |
| 2026-05-07 04:40 | -26.49458 | 125.83999 | 33359 ft | 494 kts | 133° |
| 2026-05-07 04:40 | -26.53759 | 125.89490 | 33362 ft | 494 kts | 133° |
| 2026-05-07 04:41 | -26.57895 | 125.94775 | 33360 ft | 494 kts | 133° |
| 2026-05-07 04:41 | -26.62090 | 126.00142 | 33364 ft | 494 kts | 133° |
| 2026-05-07 04:42 | -26.66252 | 126.05473 | 33360 ft | 491 kts | 133° |
| 2026-05-07 04:42 | -26.70460 | 126.10871 | 33368 ft | 492 kts | 133° |
| 2026-05-07 04:43 | -26.74569 | 126.16146 | 33370 ft | 492 kts | 133° |
| 2026-05-07 04:43 | -26.78777 | 126.21556 | 33369 ft | 492 kts | 133° |
| 2026-05-07 04:44 | -26.83017 | 126.27013 | 33372 ft | 492 kts | 133° |
| 2026-05-07 04:44 | -26.87217 | 126.32426 | 33373 ft | 490 kts | 132° |
| 2026-05-07 04:45 | -26.91382 | 126.37801 | 33375 ft | 492 kts | 132° |
| 2026-05-07 04:45 | -26.95575 | 126.43219 | 33377 ft | 492 kts | 133° |
| 2026-05-07 04:46 | -26.99792 | 126.48674 | 33379 ft | 491 kts | 132° |
| 2026-05-07 04:46 | -27.03941 | 126.54047 | 33381 ft | 491 kts | 132° |
| 2026-05-07 04:47 | -27.08100 | 126.59439 | 33383 ft | 490 kts | 132° |
| 2026-05-07 04:47 | -27.12227 | 126.64799 | 33384 ft | 491 kts | 132° |
| 2026-05-07 04:48 | -27.16465 | 126.70310 | 33397 ft | 493 kts | 133° |
| 2026-05-07 04:48 | -27.20648 | 126.75753 | 33389 ft | 490 kts | 132° |
| 2026-05-07 04:49 | -27.24870 | 126.81251 | 33385 ft | 491 kts | 132° |
| 2026-05-07 04:49 | -27.28960 | 126.86584 | 33387 ft | 491 kts | 132° |
| 2026-05-07 04:50 | -27.33163 | 126.92074 | 33387 ft | 491 kts | 132° |
| 2026-05-07 04:50 | -27.37325 | 126.97538 | 33392 ft | 490 kts | 132° |
| 2026-05-07 04:51 | -27.41427 | 127.02921 | 33393 ft | 490 kts | 132° |
| 2026-05-07 04:51 | -27.45637 | 127.08448 | 33396 ft | 490 kts | 131° |
| 2026-05-07 04:52 | -27.49848 | 127.13985 | 33390 ft | 491 kts | 132° |
| 2026-05-07 04:52 | -27.54029 | 127.19489 | 33389 ft | 489 kts | 131° |
| 2026-05-07 04:53 | -27.58245 | 127.25047 | 33404 ft | 492 kts | 132° |
| 2026-05-07 04:53 | -27.62495 | 127.30657 | 33400 ft | 490 kts | 132° |
| 2026-05-07 04:54 | -27.66677 | 127.36184 | 33403 ft | 491 kts | 131° |
| 2026-05-07 04:54 | -27.70846 | 127.41701 | 33404 ft | 490 kts | 131° |
| 2026-05-07 04:55 | -27.75049 | 127.47271 | 33398 ft | 491 kts | 132° |
| 2026-05-07 04:55 | -27.79229 | 127.52818 | 33402 ft | 495 kts | 131° |
| 2026-05-07 04:56 | -27.83428 | 127.58396 | 33398 ft | 492 kts | 131° |
| 2026-05-07 04:56 | -27.87631 | 127.63986 | 33404 ft | 488 kts | 131° |
| 2026-05-07 04:57 | -27.91781 | 127.69516 | 33410 ft | 492 kts | 131° |
| 2026-05-07 04:57 | -27.95971 | 127.75103 | 33415 ft | 492 kts | 131° |
| 2026-05-07 04:58 | -28.00053 | 127.80554 | 33418 ft | 494 kts | 131° |
| 2026-05-07 04:58 | -28.04226 | 127.86135 | 33424 ft | 490 kts | 131° |
| 2026-05-07 04:59 | -28.08397 | 127.91720 | 33416 ft | 486 kts | 131° |
| 2026-05-07 04:59 | -28.12562 | 127.97305 | 33393 ft | 492 kts | 131° |
| 2026-05-07 05:00 | -28.16674 | 128.02826 | 33415 ft | 494 kts | 131° |
| 2026-05-07 05:00 | -28.20808 | 128.08383 | 33403 ft | 490 kts | 130° |
| 2026-05-07 05:01 | -28.24902 | 128.13894 | 33429 ft | 491 kts | 130° |
| 2026-05-07 05:01 | -28.29076 | 128.19519 | 33425 ft | 487 kts | 130° |
| 2026-05-07 05:02 | -28.33191 | 128.25074 | 33409 ft | 491 kts | 130° |
| 2026-05-07 05:02 | -28.37274 | 128.30591 | 33404 ft | 492 kts | 131° |
| 2026-05-07 05:03 | -28.41413 | 128.36192 | 33432 ft | 489 kts | 130° |
| 2026-05-07 05:03 | -28.45539 | 128.41784 | 33439 ft | 489 kts | 130° |
| 2026-05-07 05:04 | -28.49665 | 128.47381 | 33423 ft | 489 kts | 130° |
| 2026-05-07 05:04 | -28.53095 | 128.52041 | 33418 ft | 490 kts | 130° |
| 2026-05-07 05:05 | -28.57906 | 128.58585 | 33419 ft | 491 kts | 130° |
| 2026-05-07 05:05 | -28.61992 | 128.64152 | 33416 ft | 489 kts | 130° |
| 2026-05-07 05:06 | -28.65366 | 128.68754 | 33434 ft | 489 kts | 130° |
| 2026-05-07 05:06 | -28.70190 | 128.75341 | 33430 ft | 489 kts | 130° |
| 2026-05-07 05:07 | -28.74297 | 128.80960 | 33425 ft | 488 kts | 130° |
| 2026-05-07 05:07 | -28.78381 | 128.86553 | 33427 ft | 490 kts | 130° |
| 2026-05-07 05:08 | -28.81777 | 128.91210 | 33433 ft | 488 kts | 130° |
| 2026-05-07 05:08 | -28.85889 | 128.96854 | 33433 ft | 488 kts | 130° |
| 2026-05-07 05:09 | -28.89944 | 129.02427 | 33433 ft | 488 kts | 130° |
| 2026-05-07 05:09 | -28.94042 | 129.08068 | 33435 ft | 488 kts | 130° |
| 2026-05-07 05:10 | -28.98156 | 129.13728 | 33431 ft | 491 kts | 130° |
| 2026-05-07 05:10 | -29.02201 | 129.19299 | 33432 ft | 487 kts | 130° |
| 2026-05-07 05:11 | -29.06296 | 129.24949 | 33434 ft | 487 kts | 130° |
| 2026-05-07 05:11 | -29.10408 | 129.30633 | 33434 ft | 488 kts | 130° |
| 2026-05-07 05:12 | -29.14488 | 129.36279 | 33432 ft | 487 kts | 129° |
| 2026-05-07 05:12 | -29.18518 | 129.41863 | 33433 ft | 489 kts | 129° |
| 2026-05-07 05:13 | -29.22617 | 129.47553 | 33435 ft | 487 kts | 129° |
| 2026-05-07 05:13 | -29.26688 | 129.53210 | 33437 ft | 485 kts | 129° |
| 2026-05-07 05:14 | -29.30736 | 129.58843 | 33437 ft | 489 kts | 129° |
| 2026-05-07 05:14 | -29.34776 | 129.64472 | 33440 ft | 489 kts | 129° |
| 2026-05-07 05:15 | -29.38834 | 129.70135 | 33436 ft | 488 kts | 129° |
| 2026-05-07 05:15 | -29.42926 | 129.75853 | 33436 ft | 487 kts | 129° |
| 2026-05-07 05:16 | -29.46946 | 129.81479 | 33438 ft | 484 kts | 129° |
| 2026-05-07 05:16 | -29.50971 | 129.87119 | 33440 ft | 488 kts | 129° |
| 2026-05-07 05:17 | -29.54980 | 129.92744 | 33446 ft | 490 kts | 129° |
| 2026-05-07 05:17 | -29.59016 | 129.98416 | 33445 ft | 485 kts | 129° |
| 2026-05-07 05:18 | -29.62997 | 130.04016 | 33441 ft | 486 kts | 129° |
| 2026-05-07 05:18 | -29.66989 | 130.09641 | 33446 ft | 486 kts | 129° |
| 2026-05-07 05:19 | -29.71027 | 130.15340 | 33447 ft | 487 kts | 129° |
| 2026-05-07 05:19 | -29.75009 | 130.20966 | 33447 ft | 488 kts | 129° |
| 2026-05-07 05:20 | -29.78997 | 130.26609 | 33448 ft | 485 kts | 129° |
| 2026-05-07 05:20 | -29.83080 | 130.32395 | 33453 ft | 485 kts | 129° |
| 2026-05-07 05:21 | -29.89093 | 130.40930 | 33452 ft | 486 kts | 129° |
| 2026-05-07 05:22 | -29.93060 | 130.46571 | 33453 ft | 487 kts | 129° |
| 2026-05-07 05:22 | -29.97028 | 130.52221 | 33451 ft | 487 kts | 129° |
| 2026-05-07 05:23 | -30.01048 | 130.57954 | 33456 ft | 487 kts | 128° |
| 2026-05-07 05:23 | -30.05065 | 130.63690 | 33455 ft | 484 kts | 128° |
| 2026-05-07 05:24 | -30.09024 | 130.69353 | 33457 ft | 486 kts | 129° |
| 2026-05-07 05:24 | -30.13062 | 130.75135 | 33459 ft | 488 kts | 128° |
| 2026-05-07 05:25 | -30.17046 | 130.80849 | 33461 ft | 485 kts | 128° |
| 2026-05-07 05:25 | -30.20997 | 130.86523 | 33461 ft | 485 kts | 128° |
| 2026-05-07 05:26 | -30.24968 | 130.92235 | 33459 ft | 486 kts | 128° |
| 2026-05-07 05:26 | -30.28937 | 130.97952 | 33464 ft | 487 kts | 128° |
| 2026-05-07 05:27 | -30.32767 | 131.03475 | 33466 ft | 489 kts | 128° |
| 2026-05-07 05:27 | -30.36636 | 131.09064 | 33469 ft | 485 kts | 128° |
| 2026-05-07 05:28 | -30.40538 | 131.14708 | 33469 ft | 484 kts | 128° |
| 2026-05-07 05:28 | -30.44369 | 131.20258 | 33469 ft | 488 kts | 128° |
| 2026-05-07 05:29 | -30.48214 | 131.25835 | 33473 ft | 486 kts | 128° |
| 2026-05-07 05:29 | -30.52029 | 131.31375 | 33472 ft | 487 kts | 128° |
| 2026-05-07 05:30 | -30.55865 | 131.36956 | 33478 ft | 486 kts | 128° |
| 2026-05-07 05:30 | -30.59737 | 131.42597 | 33475 ft | 485 kts | 128° |
| 2026-05-07 05:31 | -30.63555 | 131.48166 | 33471 ft | 488 kts | 128° |
| 2026-05-07 05:31 | -30.67403 | 131.53786 | 33471 ft | 487 kts | 128° |
| 2026-05-07 05:32 | -30.71248 | 131.59410 | 33473 ft | 490 kts | 128° |
| 2026-05-07 05:32 | -30.75170 | 131.65157 | 33473 ft | 487 kts | 128° |
| 2026-05-07 05:33 | -30.78982 | 131.70749 | 33474 ft | 489 kts | 128° |
| 2026-05-07 05:33 | -30.82802 | 131.76357 | 33472 ft | 487 kts | 128° |
| 2026-05-07 05:34 | -30.86642 | 131.82002 | 33472 ft | 488 kts | 128° |
| 2026-05-07 05:34 | -30.90544 | 131.87775 | 33473 ft | 490 kts | 128° |
| 2026-05-07 05:35 | -30.94338 | 131.93393 | 33473 ft | 488 kts | 128° |
| 2026-05-07 05:35 | -30.98204 | 131.99123 | 33466 ft | 484 kts | 128° |
| 2026-05-07 05:36 | -31.02036 | 132.04808 | 33472 ft | 489 kts | 128° |
| 2026-05-07 05:36 | -31.05849 | 132.10473 | 33473 ft | 489 kts | 128° |
| 2026-05-07 05:37 | -31.09731 | 132.16251 | 33478 ft | 490 kts | 128° |
| 2026-05-07 05:37 | -31.13519 | 132.21897 | 33478 ft | 487 kts | 128° |
| 2026-05-07 05:38 | -31.17352 | 132.27617 | 33475 ft | 485 kts | 128° |
| 2026-05-07 05:38 | -31.21169 | 132.33324 | 33475 ft | 490 kts | 128° |
| 2026-05-07 05:39 | -31.25050 | 132.39132 | 33474 ft | 487 kts | 128° |
| 2026-05-07 05:39 | -31.28819 | 132.44784 | 33475 ft | 488 kts | 128° |
| 2026-05-07 05:40 | -31.32599 | 132.50459 | 33479 ft | 490 kts | 128° |
| 2026-05-07 05:40 | -31.36373 | 132.56133 | 33481 ft | 485 kts | 128° |
| 2026-05-07 05:41 | -31.40101 | 132.61747 | 33475 ft | 485 kts | 128° |
| 2026-05-07 05:41 | -31.43929 | 132.67519 | 33478 ft | 488 kts | 128° |
| 2026-05-07 05:42 | -31.47711 | 132.73231 | 33478 ft | 488 kts | 128° |
| 2026-05-07 05:42 | -31.51501 | 132.78963 | 33485 ft | 483 kts | 128° |
| 2026-05-07 05:43 | -31.55223 | 132.84601 | 33482 ft | 482 kts | 128° |
| 2026-05-07 05:43 | -31.58954 | 132.90261 | 33482 ft | 485 kts | 128° |
| 2026-05-07 05:44 | -31.62668 | 132.95903 | 33489 ft | 481 kts | 127° |
| 2026-05-07 05:44 | -31.66405 | 133.01587 | 33489 ft | 481 kts | 127° |
| 2026-05-07 05:45 | -31.70138 | 133.07276 | 33492 ft | 483 kts | 127° |
| 2026-05-07 05:45 | -31.73852 | 133.12944 | 33487 ft | 478 kts | 127° |
| 2026-05-07 05:46 | -31.77571 | 133.18625 | 33489 ft | 477 kts | 127° |
| 2026-05-07 05:46 | -31.81277 | 133.24299 | 33491 ft | 479 kts | 127° |
| 2026-05-07 05:47 | -31.84983 | 133.29979 | 33495 ft | 480 kts | 127° |
| 2026-05-07 05:47 | -31.88646 | 133.35600 | 33490 ft | 476 kts | 127° |
| 2026-05-07 05:48 | -31.92313 | 133.41238 | 33496 ft | 476 kts | 127° |
| 2026-05-07 05:48 | -31.95960 | 133.46854 | 33497 ft | 478 kts | 127° |
| 2026-05-07 05:49 | -31.99727 | 133.52661 | 33497 ft | 478 kts | 127° |
| 2026-05-07 05:49 | -32.03402 | 133.58335 | 33496 ft | 478 kts | 127° |
| 2026-05-07 05:50 | -32.07094 | 133.64045 | 33491 ft | 479 kts | 127° |
| 2026-05-07 05:50 | -32.10727 | 133.69669 | 33493 ft | 476 kts | 127° |
| 2026-05-07 05:51 | -32.14414 | 133.75409 | 33492 ft | 475 kts | 126° |
| 2026-05-07 05:51 | -32.17994 | 133.81131 | 33493 ft | 476 kts | 126° |
| 2026-05-07 05:52 | -32.21553 | 133.86829 | 33489 ft | 477 kts | 126° |
| 2026-05-07 05:52 | -32.25098 | 133.92496 | 33491 ft | 473 kts | 126° |
| 2026-05-07 05:53 | -32.28639 | 133.98159 | 33490 ft | 474 kts | 126° |
| 2026-05-07 05:53 | -32.32193 | 134.03851 | 33492 ft | 475 kts | 126° |
| 2026-05-07 05:54 | -32.35755 | 134.09565 | 33486 ft | 473 kts | 126° |
| 2026-05-07 05:54 | -32.39327 | 134.15304 | 33485 ft | 473 kts | 126° |
| 2026-05-07 05:55 | -32.42838 | 134.20953 | 33491 ft | 472 kts | 126° |
| 2026-05-07 05:55 | -32.46352 | 134.26616 | 33489 ft | 472 kts | 126° |
| 2026-05-07 05:56 | -32.49857 | 134.32272 | 33487 ft | 472 kts | 126° |
| 2026-05-07 05:56 | -32.53387 | 134.37979 | 33489 ft | 472 kts | 126° |
| 2026-05-07 05:57 | -32.56922 | 134.43700 | 33488 ft | 470 kts | 126° |
| 2026-05-07 05:57 | -32.60386 | 134.49317 | 33485 ft | 471 kts | 126° |
| 2026-05-07 05:58 | -32.63858 | 134.54953 | 33488 ft | 469 kts | 126° |
| 2026-05-07 05:58 | -32.67345 | 134.60623 | 33487 ft | 471 kts | 126° |
| 2026-05-07 05:59 | -32.70829 | 134.66298 | 33486 ft | 469 kts | 126° |
| 2026-05-07 05:59 | -32.74283 | 134.71933 | 33485 ft | 472 kts | 126° |
| 2026-05-07 06:00 | -32.77744 | 134.77585 | 33483 ft | 469 kts | 126° |
| 2026-05-07 06:00 | -32.81245 | 134.83311 | 33489 ft | 469 kts | 125° |
| 2026-05-07 06:01 | -32.84725 | 134.89014 | 33488 ft | 467 kts | 125° |
| 2026-05-07 06:01 | -32.88170 | 134.94667 | 33487 ft | 470 kts | 125° |
| 2026-05-07 06:02 | -32.91606 | 135.00313 | 33488 ft | 468 kts | 125° |
| 2026-05-07 06:02 | -32.95036 | 135.05960 | 33486 ft | 471 kts | 125° |
| 2026-05-07 06:03 | -32.98539 | 135.11733 | 33485 ft | 469 kts | 125° |
| 2026-05-07 06:03 | -33.01950 | 135.17385 | 33482 ft | 470 kts | 125° |
| 2026-05-07 06:04 | -33.05328 | 135.23044 | 33483 ft | 467 kts | 124° |
| 2026-05-07 06:04 | -33.08755 | 135.28789 | 33483 ft | 468 kts | 124° |
| 2026-05-07 06:05 | -33.12133 | 135.34453 | 33481 ft | 468 kts | 124° |
| 2026-05-07 06:05 | -33.15532 | 135.40159 | 33484 ft | 470 kts | 125° |
| 2026-05-07 06:06 | -33.18881 | 135.45790 | 33484 ft | 471 kts | 125° |
| 2026-05-07 06:06 | -33.22288 | 135.51528 | 33485 ft | 468 kts | 125° |
| 2026-05-07 06:07 | -33.25654 | 135.57204 | 33482 ft | 469 kts | 124° |
| 2026-05-07 06:07 | -33.29048 | 135.62937 | 33477 ft | 466 kts | 124° |
| 2026-05-07 06:08 | -33.32499 | 135.68777 | 33478 ft | 470 kts | 124° |
| 2026-05-07 06:08 | -33.35890 | 135.74522 | 33476 ft | 467 kts | 125° |
| 2026-05-07 06:09 | -33.39293 | 135.80299 | 33477 ft | 471 kts | 124° |
| 2026-05-07 06:09 | -33.42672 | 135.86042 | 33477 ft | 468 kts | 124° |
| 2026-05-07 06:10 | -33.46024 | 135.91733 | 33484 ft | 470 kts | 125° |
| 2026-05-07 06:10 | -33.49533 | 135.97669 | 33484 ft | 469 kts | 125° |
| 2026-05-07 06:11 | -33.52950 | 136.03459 | 33483 ft | 471 kts | 125° |
| 2026-05-07 06:11 | -33.56389 | 136.09299 | 33482 ft | 470 kts | 125° |
| 2026-05-07 06:12 | -33.59789 | 136.15084 | 33483 ft | 473 kts | 125° |
| 2026-05-07 06:12 | -33.63223 | 136.20937 | 33485 ft | 471 kts | 125° |
| 2026-05-07 06:13 | -33.66643 | 136.26773 | 33484 ft | 471 kts | 125° |
| 2026-05-07 06:13 | -33.70030 | 136.32564 | 33485 ft | 470 kts | 125° |
| 2026-05-07 06:14 | -33.73381 | 136.38303 | 33488 ft | 471 kts | 125° |
| 2026-05-07 06:14 | -33.76759 | 136.44096 | 33484 ft | 472 kts | 125° |
| 2026-05-07 06:15 | -33.80147 | 136.49914 | 33482 ft | 471 kts | 125° |
| 2026-05-07 06:15 | -33.83559 | 136.55785 | 33483 ft | 473 kts | 125° |
| 2026-05-07 06:16 | -33.86911 | 136.61561 | 33484 ft | 470 kts | 125° |
| 2026-05-07 06:16 | -33.90315 | 136.67436 | 33483 ft | 472 kts | 125° |
| 2026-05-07 06:17 | -33.93664 | 136.73225 | 33480 ft | 469 kts | 125° |
| 2026-05-07 06:17 | -33.97001 | 136.79004 | 33480 ft | 472 kts | 125° |
| 2026-05-07 06:18 | -34.00424 | 136.84941 | 33477 ft | 470 kts | 125° |
| 2026-05-07 06:18 | -34.03763 | 136.90740 | 33477 ft | 472 kts | 125° |
| 2026-05-07 06:19 | -34.07093 | 136.96534 | 33481 ft | 471 kts | 125° |
| 2026-05-07 06:19 | -34.10520 | 137.02506 | 33477 ft | 471 kts | 125° |
| 2026-05-07 06:20 | -34.13889 | 137.08389 | 33478 ft | 471 kts | 125° |
| 2026-05-07 06:20 | -34.17171 | 137.14129 | 33474 ft | 469 kts | 125° |
| 2026-05-07 06:21 | -34.20515 | 137.19986 | 33477 ft | 472 kts | 126° |
| 2026-05-07 06:21 | -34.23858 | 137.25849 | 33475 ft | 472 kts | 125° |
| 2026-05-07 06:22 | -34.27171 | 137.31670 | 33471 ft | 473 kts | 125° |
| 2026-05-07 06:22 | -34.32235 | 137.40589 | 33470 ft | 471 kts | 125° |
| 2026-05-07 06:23 | -34.35597 | 137.46524 | 33472 ft | 470 kts | 126° |
| 2026-05-07 06:23 | -34.38949 | 137.52445 | 33472 ft | 471 kts | 126° |
| 2026-05-07 06:24 | -34.42309 | 137.58391 | 33466 ft | 472 kts | 126° |
| 2026-05-07 06:24 | -34.45645 | 137.64307 | 33464 ft | 472 kts | 126° |
| 2026-05-07 06:25 | -34.48984 | 137.70236 | 33463 ft | 473 kts | 125° |
| 2026-05-07 06:25 | -34.52337 | 137.76202 | 33461 ft | 471 kts | 125° |
| 2026-05-07 06:26 | -34.55636 | 137.82082 | 33467 ft | 473 kts | 126° |
| 2026-05-07 06:26 | -34.58985 | 137.88060 | 33465 ft | 471 kts | 126° |
| 2026-05-07 06:27 | -34.62339 | 137.94055 | 33460 ft | 473 kts | 125° |
| 2026-05-07 06:27 | -34.65673 | 138.00025 | 33458 ft | 472 kts | 126° |
| 2026-05-07 06:28 | -34.68967 | 138.05932 | 33465 ft | 475 kts | 126° |
| 2026-05-07 06:28 | -34.72284 | 138.11895 | 33461 ft | 474 kts | 126° |
| 2026-05-07 06:29 | -34.75632 | 138.17924 | 33463 ft | 474 kts | 126° |
| 2026-05-07 06:29 | -34.78993 | 138.23983 | 33460 ft | 475 kts | 126° |
| 2026-05-07 06:30 | -34.82337 | 138.30023 | 33464 ft | 476 kts | 126° |
| 2026-05-07 06:30 | -34.85684 | 138.36075 | 33460 ft | 476 kts | 126° |
| 2026-05-07 06:31 | -34.89088 | 138.42246 | 33462 ft | 475 kts | 126° |
| 2026-05-07 06:31 | -34.92445 | 138.48339 | 33461 ft | 477 kts | 126° |
| 2026-05-07 06:32 | -34.95387 | 138.54797 | 33461 ft | 480 kts | 115° |
| 2026-05-07 06:32 | -34.97552 | 138.61842 | 33461 ft | 480 kts | 112° |
| 2026-05-07 06:33 | -34.99691 | 138.68839 | 33459 ft | 481 kts | 112° |
| 2026-05-07 06:33 | -35.01818 | 138.75815 | 33445 ft | 481 kts | 112° |
| 2026-05-07 06:34 | -35.03982 | 138.82948 | 33445 ft | 481 kts | 112° |
| 2026-05-07 06:34 | -35.06200 | 138.90286 | 33445 ft | 481 kts | 112° |
| 2026-05-07 06:35 | -35.08378 | 138.97509 | 33448 ft | 481 kts | 112° |
| 2026-05-07 06:35 | -35.10519 | 139.04626 | 33439 ft | 481 kts | 112° |
| 2026-05-07 06:36 | -35.12652 | 139.11734 | 33439 ft | 482 kts | 112° |
| 2026-05-07 06:36 | -35.14782 | 139.18851 | 33440 ft | 482 kts | 112° |
| 2026-05-07 06:37 | -35.16901 | 139.25948 | 33437 ft | 481 kts | 112° |
| 2026-05-07 06:37 | -35.18983 | 139.32939 | 33437 ft | 481 kts | 112° |
| 2026-05-07 06:38 | -35.21077 | 139.39988 | 33436 ft | 482 kts | 112° |
| 2026-05-07 06:38 | -35.23223 | 139.47226 | 33431 ft | 482 kts | 112° |
| 2026-05-07 06:39 | -35.25607 | 139.54451 | 33437 ft | 480 kts | 117° |
| 2026-05-07 06:39 | -35.28247 | 139.61496 | 33429 ft | 480 kts | 117° |
| 2026-05-07 06:40 | -35.30840 | 139.68461 | 33429 ft | 480 kts | 117° |
| 2026-05-07 06:40 | -35.33434 | 139.75448 | 33439 ft | 480 kts | 117° |
| 2026-05-07 06:41 | -35.35994 | 139.82365 | 33424 ft | 480 kts | 117° |
| 2026-05-07 06:41 | -35.38519 | 139.89199 | 33421 ft | 480 kts | 117° |
| 2026-05-07 06:42 | -35.41024 | 139.95993 | 33421 ft | 480 kts | 117° |
| 2026-05-07 06:42 | -35.43526 | 140.02797 | 33416 ft | 480 kts | 117° |
| 2026-05-07 06:43 | -35.46041 | 140.09647 | 33419 ft | 480 kts | 117° |
| 2026-05-07 06:43 | -35.48538 | 140.16466 | 33414 ft | 480 kts | 117° |
| 2026-05-07 06:44 | -35.51036 | 140.23302 | 33415 ft | 481 kts | 117° |
| 2026-05-07 06:44 | -35.53515 | 140.30101 | 33411 ft | 480 kts | 117° |
| 2026-05-07 06:45 | -35.56010 | 140.36955 | 33409 ft | 481 kts | 117° |
| 2026-05-07 06:45 | -35.58478 | 140.43753 | 33415 ft | 481 kts | 117° |
| 2026-05-07 06:46 | -35.60964 | 140.50616 | 33406 ft | 481 kts | 117° |
| 2026-05-07 06:46 | -35.63431 | 140.57440 | 33402 ft | 481 kts | 117° |
| 2026-05-07 06:47 | -35.65892 | 140.64261 | 33402 ft | 481 kts | 117° |
| 2026-05-07 06:47 | -35.68357 | 140.71110 | 33399 ft | 482 kts | 117° |
| 2026-05-07 06:48 | -35.70806 | 140.77928 | 33396 ft | 482 kts | 117° |
| 2026-05-07 06:48 | -35.73279 | 140.84830 | 33395 ft | 482 kts | 117° |
| 2026-05-07 06:49 | -35.75864 | 140.92060 | 33395 ft | 483 kts | 117° |
| 2026-05-07 06:49 | -35.78440 | 140.99281 | 33388 ft | 483 kts | 117° |
| 2026-05-07 06:50 | -35.80951 | 141.06336 | 33383 ft | 482 kts | 117° |
| 2026-05-07 06:50 | -35.83470 | 141.13429 | 33392 ft | 483 kts | 117° |
| 2026-05-07 06:51 | -35.85943 | 141.20410 | 33382 ft | 484 kts | 117° |
| 2026-05-07 06:51 | -35.88447 | 141.27493 | 33378 ft | 483 kts | 117° |
| 2026-05-07 06:52 | -35.90963 | 141.34627 | 33394 ft | 483 kts | 117° |
| 2026-05-07 06:52 | -35.93425 | 141.41627 | 33375 ft | 484 kts | 117° |
| 2026-05-07 06:53 | -35.95873 | 141.48597 | 33374 ft | 484 kts | 117° |
| 2026-05-07 06:53 | -35.98345 | 141.55656 | 33372 ft | 484 kts | 117° |
| 2026-05-07 06:54 | -36.00894 | 141.62948 | 33369 ft | 484 kts | 117° |
| 2026-05-07 06:54 | -36.03420 | 141.70195 | 33372 ft | 484 kts | 117° |
| 2026-05-07 06:55 | -36.05846 | 141.77171 | 33367 ft | 484 kts | 117° |
| 2026-05-07 06:55 | -36.08254 | 141.84111 | 33367 ft | 484 kts | 117° |
| 2026-05-07 06:56 | -36.10688 | 141.91142 | 33355 ft | 484 kts | 117° |
| 2026-05-07 06:56 | -36.13112 | 141.98157 | 33357 ft | 484 kts | 117° |
| 2026-05-07 06:57 | -36.15528 | 142.05162 | 33365 ft | 484 kts | 117° |
| 2026-05-07 06:57 | -36.17918 | 142.12105 | 33353 ft | 484 kts | 117° |
| 2026-05-07 06:58 | -36.20340 | 142.19176 | 33355 ft | 484 kts | 117° |
| 2026-05-07 06:58 | -36.22715 | 142.26118 | 33354 ft | 484 kts | 117° |
| 2026-05-07 06:59 | -36.25186 | 142.33360 | 33348 ft | 483 kts | 118° |
| 2026-05-07 06:59 | -36.27662 | 142.40629 | 33341 ft | 483 kts | 117° |
| 2026-05-07 07:00 | -36.30027 | 142.47587 | 33343 ft | 483 kts | 117° |
| 2026-05-07 07:00 | -36.32391 | 142.54561 | 33334 ft | 484 kts | 118° |
| 2026-05-07 07:01 | -36.34769 | 142.61598 | 32807 ft | 479 kts | 118° |
| 2026-05-07 07:01 | -36.35932 | 142.65043 | 32279 ft | 476 kts | 118° |
| 2026-05-07 07:01 | -36.37104 | 142.68520 | 31743 ft | 473 kts | 118° |
| 2026-05-07 07:02 | -36.38245 | 142.71909 | 31218 ft | 471 kts | 118° |
| 2026-05-07 07:02 | -36.39422 | 142.75407 | 30684 ft | 468 kts | 118° |
| 2026-05-07 07:02 | -36.40569 | 142.78822 | 30117 ft | 465 kts | 118° |
| 2026-05-07 07:02 | -36.41683 | 142.82141 | 29556 ft | 462 kts | 118° |
| 2026-05-07 07:03 | -36.42784 | 142.85425 | 29008 ft | 459 kts | 118° |
| 2026-05-07 07:03 | -36.43892 | 142.88733 | 28451 ft | 456 kts | 118° |
| 2026-05-07 07:03 | -36.44982 | 142.91996 | 27904 ft | 453 kts | 118° |
| 2026-05-07 07:03 | -36.46062 | 142.95233 | 27372 ft | 451 kts | 118° |
| 2026-05-07 07:04 | -36.47146 | 142.98484 | 26830 ft | 448 kts | 118° |
| 2026-05-07 07:04 | -36.48250 | 143.01799 | 26329 ft | 445 kts | 119° |
| 2026-05-07 07:04 | -36.49328 | 143.05040 | 25788 ft | 443 kts | 119° |
| 2026-05-07 07:04 | -36.50386 | 143.08220 | 25278 ft | 441 kts | 119° |
| 2026-05-07 07:05 | -36.51422 | 143.11341 | 24787 ft | 439 kts | 119° |
| 2026-05-07 07:05 | -36.52508 | 143.14616 | 24274 ft | 436 kts | 119° |
| 2026-05-07 07:05 | -36.53589 | 143.17878 | 23736 ft | 434 kts | 119° |
| 2026-05-07 07:05 | -36.54673 | 143.21158 | 23219 ft | 430 kts | 119° |
| 2026-05-07 07:06 | -36.55735 | 143.24372 | 22704 ft | 426 kts | 119° |
| 2026-05-07 07:06 | -36.56751 | 143.27455 | 22243 ft | 422 kts | 119° |
| 2026-05-07 07:06 | -36.57767 | 143.30538 | 21749 ft | 418 kts | 119° |
| 2026-05-07 07:06 | -36.58788 | 143.33636 | 21259 ft | 414 kts | 119° |
| 2026-05-07 07:07 | -36.59779 | 143.36644 | 20799 ft | 411 kts | 119° |
| 2026-05-07 07:07 | -36.60791 | 143.39722 | 20303 ft | 407 kts | 119° |
| 2026-05-07 07:07 | -36.61796 | 143.42783 | 19852 ft | 403 kts | 119° |
| 2026-05-07 07:07 | -36.62813 | 143.45882 | 19379 ft | 400 kts | 119° |
| 2026-05-07 07:08 | -36.63791 | 143.48864 | 18925 ft | 396 kts | 119° |
| 2026-05-07 07:08 | -36.64750 | 143.51796 | 18504 ft | 393 kts | 120° |
| 2026-05-07 07:08 | -36.65674 | 143.54621 | 18034 ft | 389 kts | 120° |
| 2026-05-07 07:08 | -36.66580 | 143.57394 | 17549 ft | 386 kts | 120° |
| 2026-05-07 07:09 | -36.67478 | 143.60145 | 17088 ft | 382 kts | 120° |
| 2026-05-07 07:09 | -36.68411 | 143.63005 | 16624 ft | 379 kts | 120° |
| 2026-05-07 07:09 | -36.69297 | 143.65722 | 16147 ft | 375 kts | 120° |
| 2026-05-07 07:09 | -36.70168 | 143.68397 | 15710 ft | 372 kts | 120° |
| 2026-05-07 07:10 | -36.71043 | 143.71087 | 15405 ft | 368 kts | 120° |
| 2026-05-07 07:10 | -36.71906 | 143.73741 | 15320 ft | 368 kts | 120° |
| 2026-05-07 07:10 | -36.72763 | 143.76385 | 15293 ft | 358 kts | 120° |
| 2026-05-07 07:10 | -36.73566 | 143.78888 | 15294 ft | 343 kts | 121° |
| 2026-05-07 07:11 | -36.74349 | 143.81317 | 15182 ft | 336 kts | 121° |
| 2026-05-07 07:11 | -36.75148 | 143.83780 | 14858 ft | 333 kts | 121° |
| 2026-05-07 07:11 | -36.75960 | 143.86272 | 14491 ft | 331 kts | 121° |
| 2026-05-07 07:11 | -36.76744 | 143.88686 | 14132 ft | 329 kts | 121° |
| 2026-05-07 07:12 | -36.77532 | 143.91119 | 13785 ft | 326 kts | 121° |
| 2026-05-07 07:12 | -36.78311 | 143.93531 | 13414 ft | 324 kts | 121° |
| 2026-05-07 07:12 | -36.79066 | 143.95871 | 13033 ft | 321 kts | 121° |
| 2026-05-07 07:12 | -36.79816 | 143.98197 | 12697 ft | 318 kts | 121° |
| 2026-05-07 07:13 | -36.80543 | 144.00455 | 12337 ft | 316 kts | 121° |
| 2026-05-07 07:13 | -36.81281 | 144.02747 | 11968 ft | 314 kts | 121° |
| 2026-05-07 07:13 | -36.82012 | 144.05019 | 11629 ft | 311 kts | 121° |
| 2026-05-07 07:13 | -36.82742 | 144.07292 | 11278 ft | 308 kts | 121° |
| 2026-05-07 07:14 | -36.83462 | 144.09535 | 10916 ft | 306 kts | 121° |
| 2026-05-07 07:14 | -36.84197 | 144.11829 | 10570 ft | 303 kts | 121° |
| 2026-05-07 07:14 | -36.84901 | 144.14028 | 10372 ft | 297 kts | 121° |
| 2026-05-07 07:14 | -36.85576 | 144.16157 | 10274 ft | 286 kts | 122° |
| 2026-05-07 07:15 | -36.86223 | 144.18203 | 10278 ft | 271 kts | 122° |
| 2026-05-07 07:15 | -36.86852 | 144.20192 | 10286 ft | 260 kts | 123° |
| 2026-05-07 07:15 | -36.87460 | 144.22087 | 10213 ft | 256 kts | 123° |
| 2026-05-07 07:15 | -36.88065 | 144.23960 | 9980 ft | 254 kts | 123° |
| 2026-05-07 07:16 | -36.88685 | 144.25868 | 9626 ft | 256 kts | 123° |
| 2026-05-07 07:16 | -36.89283 | 144.27717 | 9312 ft | 257 kts | 123° |
| 2026-05-07 07:16 | -36.89879 | 144.29581 | 8960 ft | 258 kts | 122° |
| 2026-05-07 07:16 | -36.90480 | 144.31469 | 8661 ft | 257 kts | 122° |
| 2026-05-07 07:17 | -36.91087 | 144.33373 | 8343 ft | 258 kts | 121° |
| 2026-05-07 07:17 | -36.91687 | 144.35262 | 8250 ft | 255 kts | 121° |
| 2026-05-07 07:17 | -36.92291 | 144.37159 | 8263 ft | 258 kts | 122° |
| 2026-05-07 07:17 | -36.93077 | 144.39039 | 8283 ft | 250 kts | 134° |
| 2026-05-07 07:18 | -36.94085 | 144.40582 | 8289 ft | 243 kts | 142° |
| 2026-05-07 07:18 | -36.95170 | 144.42080 | 8286 ft | 244 kts | 141° |
| 2026-05-07 07:18 | -36.96222 | 144.43567 | 8260 ft | 243 kts | 141° |
| 2026-05-07 07:18 | -36.97257 | 144.45048 | 8101 ft | 245 kts | 140° |
| 2026-05-07 07:19 | -36.98305 | 144.46549 | 7932 ft | 243 kts | 140° |
| 2026-05-07 07:19 | -36.99378 | 144.48085 | 7582 ft | 245 kts | 140° |
| 2026-05-07 07:19 | -37.00452 | 144.49621 | 7334 ft | 247 kts | 140° |
| 2026-05-07 07:19 | -37.01532 | 144.51166 | 7272 ft | 246 kts | 139° |
| 2026-05-07 07:20 | -37.02551 | 144.52630 | 7269 ft | 245 kts | 139° |
| 2026-05-07 07:20 | -37.03605 | 144.54141 | 7269 ft | 246 kts | 139° |
| 2026-05-07 07:20 | -37.04666 | 144.55662 | 7265 ft | 246 kts | 139° |
| 2026-05-07 07:20 | -37.05719 | 144.57171 | 7267 ft | 246 kts | 139° |
| 2026-05-07 07:21 | -37.06768 | 144.58677 | 7269 ft | 247 kts | 139° |
| 2026-05-07 07:21 | -37.07815 | 144.60182 | 7257 ft | 246 kts | 139° |
| 2026-05-07 07:21 | -37.08884 | 144.61718 | 7125 ft | 246 kts | 139° |
| 2026-05-07 07:21 | -37.09930 | 144.63221 | 6985 ft | 244 kts | 139° |
| 2026-05-07 07:22 | -37.10984 | 144.64734 | 6625 ft | 248 kts | 139° |
| 2026-05-07 07:22 | -37.12040 | 144.66250 | 6325 ft | 248 kts | 139° |
| 2026-05-07 07:22 | -37.13099 | 144.67776 | 6089 ft | 245 kts | 138° |
| 2026-05-07 07:22 | -37.14087 | 144.69203 | 5824 ft | 244 kts | 139° |
| 2026-05-07 07:23 | -37.15088 | 144.70648 | 5545 ft | 243 kts | 138° |
| 2026-05-07 07:23 | -37.16138 | 144.72141 | 5258 ft | 241 kts | 142° |
| 2026-05-07 07:23 | -37.17412 | 144.73255 | 4989 ft | 229 kts | 163° |
| 2026-05-07 07:23 | -37.18820 | 144.73725 | 4726 ft | 220 kts | 175° |
| 2026-05-07 07:24 | -37.20215 | 144.74053 | 4539 ft | 212 kts | 175° |
| 2026-05-07 07:24 | -37.21559 | 144.74401 | 4057 ft | 213 kts | 176° |
| 2026-05-07 07:24 | -37.22958 | 144.74671 | 3541 ft | 215 kts | 175° |
| 2026-05-07 07:24 | -37.24339 | 144.75025 | 3301 ft | 214 kts | 173° |
| 2026-05-07 07:25 | -37.26959 | 144.75703 | 3262 ft | 184 kts | 175° |
| 2026-05-07 07:25 | -37.28066 | 144.75970 | 3261 ft | 161 kts | 176° |
| 2026-05-07 07:25 | -37.29098 | 144.76196 | 3256 ft | 158 kts | 177° |
| 2026-05-07 07:26 | -37.30089 | 144.76400 | 3261 ft | 157 kts | 178° |
| 2026-05-07 07:26 | -37.31110 | 144.76609 | 3263 ft | 156 kts | 178° |
| 2026-05-07 07:26 | -37.32118 | 144.76815 | 3260 ft | 156 kts | 178° |
| 2026-05-07 07:26 | -37.33131 | 144.77024 | 3256 ft | 156 kts | 178° |
| 2026-05-07 07:27 | -37.34168 | 144.77239 | 3259 ft | 156 kts | 177° |
| 2026-05-07 07:27 | -37.35186 | 144.77454 | 3257 ft | 156 kts | 178° |
| 2026-05-07 07:27 | -37.36192 | 144.77666 | 3254 ft | 155 kts | 177° |
| 2026-05-07 07:27 | -37.37206 | 144.77879 | 3255 ft | 155 kts | 177° |
| 2026-05-07 07:28 | -37.38207 | 144.78092 | 3247 ft | 152 kts | 178° |
| 2026-05-07 07:28 | -37.39192 | 144.78303 | 3256 ft | 158 kts | 178° |
| 2026-05-07 07:28 | -37.40203 | 144.78515 | 3255 ft | 154 kts | 177° |
| 2026-05-07 07:28 | -37.41156 | 144.78717 | 3247 ft | 145 kts | 178° |
| 2026-05-07 07:29 | -37.42108 | 144.78913 | 3250 ft | 147 kts | 178° |
| 2026-05-07 07:29 | -37.43083 | 144.79116 | 3253 ft | 148 kts | 178° |
| 2026-05-07 07:29 | -37.44051 | 144.79319 | 3251 ft | 148 kts | 178° |
| 2026-05-07 07:29 | -37.45030 | 144.79526 | 3250 ft | 148 kts | 178° |
| 2026-05-07 07:30 | -37.45973 | 144.79726 | 3251 ft | 147 kts | 178° |
| 2026-05-07 07:30 | -37.46939 | 144.79931 | 3249 ft | 147 kts | 178° |
| 2026-05-07 07:30 | -37.47586 | 144.80066 | 3251 ft | 150 kts | 178° |
| 2026-05-07 07:30 | -37.48865 | 144.80336 | 3253 ft | 149 kts | 178° |
| 2026-05-07 07:31 | -37.49810 | 144.80540 | 3249 ft | 147 kts | 178° |
| 2026-05-07 07:31 | -37.50790 | 144.80746 | 3244 ft | 147 kts | 178° |
| 2026-05-07 07:31 | -37.51738 | 144.80943 | 3245 ft | 148 kts | 178° |
| 2026-05-07 07:31 | -37.52693 | 144.81146 | 3087 ft | 146 kts | 178° |
| 2026-05-07 07:32 | -37.53626 | 144.81341 | 2826 ft | 146 kts | 179° |
| 2026-05-07 07:32 | -37.54593 | 144.81519 | 2713 ft | 147 kts | 180° |
| 2026-05-07 07:32 | -37.55227 | 144.81631 | 2568 ft | 146 kts | 180° |
| 2026-05-07 07:32 | -37.56484 | 144.81850 | 2300 ft | 146 kts | 180° |
| 2026-05-07 07:33 | -37.57109 | 144.81960 | 2178 ft | 146 kts | 180° |
| 2026-05-07 07:33 | -37.58367 | 144.82183 | 1991 ft | 149 kts | 179° |
| 2026-05-07 07:33 | -37.59327 | 144.82361 | 1744 ft | 145 kts | 179° |
| 2026-05-07 07:33 | -37.59976 | 144.82486 | 1603 ft | 148 kts | 179° |
| 2026-05-07 07:34 | -37.61243 | 144.82721 | 1445 ft | 149 kts | 177° |
| 2026-05-07 07:34 | -37.62194 | 144.82902 | 1275 ft | 145 kts | 176° |
| 2026-05-07 07:34 | -37.62813 | 144.83046 | 1023 ft | 151 kts | 176° |
| 2026-05-07 07:34 | -37.63775 | 144.83233 | 814 ft | 148 kts | 180° |
| 2026-05-07 07:35 | -37.64739 | 144.83365 | 624 ft | 150 kts | 170° |
| 2026-05-07 07:35 | -37.65887 | 144.83578 | 405 ft | 102 kts | 170° |
| 2026-05-07 07:35 | -37.66244 | 144.83657 | 400 ft | 72 kts | 171° |
| 2026-05-07 07:35 | -37.66743 | 144.83757 | 393 ft | 34 kts | 172° |
| 2026-05-07 07:36 | -37.66883 | 144.83784 | 391 ft | 18 kts | 167° |
| 2026-05-07 07:36 | -37.66947 | 144.83810 | 388 ft | 10 kts | 156° |
| 2026-05-07 07:36 | -37.67005 | 144.83847 | 386 ft | 10 kts | 150° |
| 2026-05-07 07:36 | -37.67062 | 144.83893 | 384 ft | 12 kts | 146° |
| 2026-05-07 07:37 | -37.67121 | 144.83944 | 381 ft | 0 kts | 143° |
| 2026-05-07 07:37 | -37.67132 | 144.83954 | 381 ft | 5 kts | 142° |
| 2026-05-07 07:37 | -37.67149 | 144.83972 | 379 ft | 0 kts | 139° |
| 2026-05-07 07:39 | -37.67157 | 144.83981 | 379 ft | 6 kts | 137° |
| 2026-05-07 07:39 | -37.67194 | 144.84036 | 378 ft | 10 kts | 121° |
| 2026-05-07 07:39 | -37.67219 | 144.84118 | 377 ft | 9 kts | 91° |
| 2026-05-07 07:39 | -37.67166 | 144.84216 | 377 ft | 19 kts | 30° |
| 2026-05-07 07:40 | -37.67059 | 144.84236 | 379 ft | 18 kts | 356° |
| 2026-05-07 07:40 | -37.66930 | 144.84217 | 378 ft | 21 kts | 352° |
| 2026-05-07 07:40 | -37.66811 | 144.84195 | 380 ft | 14 kts | 351° |
| 2026-05-07 07:40 | -37.66720 | 144.84214 | 379 ft | 16 kts | 52° |
| 2026-05-07 07:41 | -37.66681 | 144.84358 | 372 ft | 24 kts | 80° |
| 2026-05-07 07:41 | -37.66671 | 144.84440 | 365 ft | 0 kts | 83° |
| 2026-05-07 07:41 | -37.66673 | 144.84455 | 364 ft | 1 kts | 140° |
| 2026-05-07 07:41 | -37.66701 | 144.84460 | 369 ft | 5 kts | 187° |
| 2026-05-07 07:42 | -37.66724 | 144.84456 | 366 ft | 2 kts | 187° |
| 2026-05-07 07:42 | -37.66740 | 144.84454 | 371 ft | 3 kts | 181° |
| 2026-05-07 07:42 | -37.66758 | 144.84455 | 368 ft | 0 kts | 174° |
| 2026-05-07 07:42 | -37.66769 | 144.84457 | 370 ft | 3 kts | 174° |
| 2026-05-07 07:43 | -37.66778 | 144.84458 | 367 ft | 0 kts | 174° |